<?xml version="1.0" encoding="UTF-8" standalone="no" ?>
<gpx xmlns="http://www.topografix.com/GPX/1/1" xmlns:xsi="http://www.w3.org/2001/XMLSchema-instance" xsi:schemaLocation="http://www.topografix.com/GPX/1/1 http://www.topografix.com/GPX/1/1/gpx.xsd" version="1.1" creator="VisuGPX - https://www.visugpx.com">
  <metadata>
    <name>2021-03-01 08-38-Cogn Gorg Sous Lunette</name>
  </metadata>
  <trk>
    <name><![CDATA[2021-03-01 08-38-Cogn Gorg Sous Lunette]]></name>
    <trkseg>
      <trkpt lat="45.17043" lon="5.41203">
        <ele>275</ele>
        <time>2021-03-01T07:46:36Z</time>
      </trkpt>
      <trkpt lat="45.17023" lon="5.41204">
        <ele>274</ele>
        <time>2021-03-01T07:46:56Z</time>
      </trkpt>
      <trkpt lat="45.17005" lon="5.41215">
        <ele>274</ele>
        <time>2021-03-01T07:47:11Z</time>
      </trkpt>
      <trkpt lat="45.16991" lon="5.41232">
        <ele>274</ele>
        <time>2021-03-01T07:47:27Z</time>
      </trkpt>
      <trkpt lat="45.16974" lon="5.41246">
        <ele>275</ele>
        <time>2021-03-01T07:47:43Z</time>
      </trkpt>
      <trkpt lat="45.16964" lon="5.41267">
        <ele>276</ele>
        <time>2021-03-01T07:47:59Z</time>
      </trkpt>
      <trkpt lat="45.16956" lon="5.4129">
        <ele>279</ele>
        <time>2021-03-01T07:48:16Z</time>
      </trkpt>
      <trkpt lat="45.16953" lon="5.41316">
        <ele>281</ele>
        <time>2021-03-01T07:48:33Z</time>
      </trkpt>
      <trkpt lat="45.16917" lon="5.41381">
        <ele>286</ele>
        <time>2021-03-01T07:49:07Z</time>
      </trkpt>
      <trkpt lat="45.16933" lon="5.41366">
        <ele>285</ele>
        <time>2021-03-01T07:49:12Z</time>
      </trkpt>
      <trkpt lat="45.1694" lon="5.4134">
        <ele>283</ele>
        <time>2021-03-01T07:49:26Z</time>
      </trkpt>
      <trkpt lat="45.16935" lon="5.41314">
        <ele>280</ele>
        <time>2021-03-01T07:49:47Z</time>
      </trkpt>
      <trkpt lat="45.16917" lon="5.4132">
        <ele>280</ele>
        <time>2021-03-01T07:50:12Z</time>
      </trkpt>
      <trkpt lat="45.16899" lon="5.41327">
        <ele>279</ele>
        <time>2021-03-01T07:50:27Z</time>
      </trkpt>
      <trkpt lat="45.16884" lon="5.41342">
        <ele>278</ele>
        <time>2021-03-01T07:50:37Z</time>
      </trkpt>
      <trkpt lat="45.16877" lon="5.41366">
        <ele>280</ele>
        <time>2021-03-01T07:50:53Z</time>
      </trkpt>
      <trkpt lat="45.16877" lon="5.41393">
        <ele>282</ele>
        <time>2021-03-01T07:51:12Z</time>
      </trkpt>
      <trkpt lat="45.16872" lon="5.41417">
        <ele>285</ele>
        <time>2021-03-01T07:52:06Z</time>
      </trkpt>
      <trkpt lat="45.16861" lon="5.4144">
        <ele>288</ele>
        <time>2021-03-01T07:52:18Z</time>
      </trkpt>
      <trkpt lat="45.16849" lon="5.4146">
        <ele>291</ele>
        <time>2021-03-01T07:52:31Z</time>
      </trkpt>
      <trkpt lat="45.16836" lon="5.41478">
        <ele>293</ele>
        <time>2021-03-01T07:52:47Z</time>
      </trkpt>
      <trkpt lat="45.16822" lon="5.41497">
        <ele>293</ele>
        <time>2021-03-01T07:53:06Z</time>
      </trkpt>
      <trkpt lat="45.16809" lon="5.41516">
        <ele>288</ele>
        <time>2021-03-01T07:53:20Z</time>
      </trkpt>
      <trkpt lat="45.16799" lon="5.41538">
        <ele>292</ele>
        <time>2021-03-01T07:53:33Z</time>
      </trkpt>
      <trkpt lat="45.16814" lon="5.41617">
        <ele>304</ele>
        <time>2021-03-01T07:54:08Z</time>
      </trkpt>
      <trkpt lat="45.16795" lon="5.41619">
        <ele>302</ele>
        <time>2021-03-01T07:54:32Z</time>
      </trkpt>
      <trkpt lat="45.16786" lon="5.41643">
        <ele>311</ele>
        <time>2021-03-01T07:54:45Z</time>
      </trkpt>
      <trkpt lat="45.16771" lon="5.41657">
        <ele>320</ele>
        <time>2021-03-01T07:55:01Z</time>
      </trkpt>
      <trkpt lat="45.16753" lon="5.41669">
        <ele>331</ele>
        <time>2021-03-01T07:55:16Z</time>
      </trkpt>
      <trkpt lat="45.16771" lon="5.41536">
        <ele>313</ele>
        <time>2021-03-01T07:59:10Z</time>
      </trkpt>
      <trkpt lat="45.16767" lon="5.41509">
        <ele>322</ele>
        <time>2021-03-01T07:59:13Z</time>
      </trkpt>
      <trkpt lat="45.16778" lon="5.41486">
        <ele>318</ele>
        <time>2021-03-01T07:59:58Z</time>
      </trkpt>
      <trkpt lat="45.16775" lon="5.41459">
        <ele>323</ele>
        <time>2021-03-01T08:00:45Z</time>
      </trkpt>
      <trkpt lat="45.16763" lon="5.41438">
        <ele>333</ele>
        <time>2021-03-01T08:01:07Z</time>
      </trkpt>
      <trkpt lat="45.16747" lon="5.41424">
        <ele>341</ele>
        <time>2021-03-01T08:01:36Z</time>
      </trkpt>
      <trkpt lat="45.16732" lon="5.41409">
        <ele>348</ele>
        <time>2021-03-01T08:01:59Z</time>
      </trkpt>
      <trkpt lat="45.16716" lon="5.41395">
        <ele>355</ele>
        <time>2021-03-01T08:02:22Z</time>
      </trkpt>
      <trkpt lat="45.16704" lon="5.41376">
        <ele>356</ele>
        <time>2021-03-01T08:02:54Z</time>
      </trkpt>
      <trkpt lat="45.16692" lon="5.41356">
        <ele>357</ele>
        <time>2021-03-01T08:03:13Z</time>
      </trkpt>
      <trkpt lat="45.16677" lon="5.4134">
        <ele>362</ele>
        <time>2021-03-01T08:03:33Z</time>
      </trkpt>
      <trkpt lat="45.16653" lon="5.41307">
        <ele>365</ele>
        <time>2021-03-01T08:04:09Z</time>
      </trkpt>
      <trkpt lat="45.16642" lon="5.41286">
        <ele>364</ele>
        <time>2021-03-01T08:04:44Z</time>
      </trkpt>
      <trkpt lat="45.16623" lon="5.4128">
        <ele>372</ele>
        <time>2021-03-01T08:05:00Z</time>
      </trkpt>
      <trkpt lat="45.16605" lon="5.41272">
        <ele>377</ele>
        <time>2021-03-01T08:05:25Z</time>
      </trkpt>
      <trkpt lat="45.16589" lon="5.41255">
        <ele>381</ele>
        <time>2021-03-01T08:05:51Z</time>
      </trkpt>
      <trkpt lat="45.16582" lon="5.41232">
        <ele>381</ele>
        <time>2021-03-01T08:06:11Z</time>
      </trkpt>
      <trkpt lat="45.16577" lon="5.41257">
        <ele>389</ele>
        <time>2021-03-01T08:09:44Z</time>
      </trkpt>
      <trkpt lat="45.16576" lon="5.41285">
        <ele>398</ele>
        <time>2021-03-01T08:09:49Z</time>
      </trkpt>
      <trkpt lat="45.16586" lon="5.41306">
        <ele>400</ele>
        <time>2021-03-01T08:10:04Z</time>
      </trkpt>
      <trkpt lat="45.16603" lon="5.4132">
        <ele>397</ele>
        <time>2021-03-01T08:10:20Z</time>
      </trkpt>
      <trkpt lat="45.16615" lon="5.4134">
        <ele>399</ele>
        <time>2021-03-01T08:10:37Z</time>
      </trkpt>
      <trkpt lat="45.16626" lon="5.41365">
        <ele>401</ele>
        <time>2021-03-01T08:10:56Z</time>
      </trkpt>
      <trkpt lat="45.16634" lon="5.41388">
        <ele>404</ele>
        <time>2021-03-01T08:11:14Z</time>
      </trkpt>
      <trkpt lat="45.16637" lon="5.41414">
        <ele>411</ele>
        <time>2021-03-01T08:11:38Z</time>
      </trkpt>
      <trkpt lat="45.16652" lon="5.4143">
        <ele>407</ele>
        <time>2021-03-01T08:11:51Z</time>
      </trkpt>
      <trkpt lat="45.16655" lon="5.41455">
        <ele>413</ele>
        <time>2021-03-01T08:12:21Z</time>
      </trkpt>
      <trkpt lat="45.16638" lon="5.41447">
        <ele>422</ele>
        <time>2021-03-01T08:12:50Z</time>
      </trkpt>
      <trkpt lat="45.16621" lon="5.41428">
        <ele>424</ele>
        <time>2021-03-01T08:13:23Z</time>
      </trkpt>
      <trkpt lat="45.16607" lon="5.41411">
        <ele>425</ele>
        <time>2021-03-01T08:13:33Z</time>
      </trkpt>
      <trkpt lat="45.16589" lon="5.41404">
        <ele>431</ele>
        <time>2021-03-01T08:13:51Z</time>
      </trkpt>
      <trkpt lat="45.16574" lon="5.41388">
        <ele>431</ele>
        <time>2021-03-01T08:14:08Z</time>
      </trkpt>
      <trkpt lat="45.16557" lon="5.41377">
        <ele>431</ele>
        <time>2021-03-01T08:14:30Z</time>
      </trkpt>
      <trkpt lat="45.1654" lon="5.41366">
        <ele>433</ele>
        <time>2021-03-01T08:14:50Z</time>
      </trkpt>
      <trkpt lat="45.16523" lon="5.41377">
        <ele>439</ele>
        <time>2021-03-01T08:15:06Z</time>
      </trkpt>
      <trkpt lat="45.16504" lon="5.41373">
        <ele>443</ele>
        <time>2021-03-01T08:15:23Z</time>
      </trkpt>
      <trkpt lat="45.16503" lon="5.41346">
        <ele>442</ele>
        <time>2021-03-01T08:15:46Z</time>
      </trkpt>
      <trkpt lat="45.16492" lon="5.41321">
        <ele>447</ele>
        <time>2021-03-01T08:16:06Z</time>
      </trkpt>
      <trkpt lat="45.16494" lon="5.41295">
        <ele>448</ele>
        <time>2021-03-01T08:16:25Z</time>
      </trkpt>
      <trkpt lat="45.16491" lon="5.41269">
        <ele>452</ele>
        <time>2021-03-01T08:16:46Z</time>
      </trkpt>
      <trkpt lat="45.16485" lon="5.41244">
        <ele>455</ele>
        <time>2021-03-01T08:17:06Z</time>
      </trkpt>
      <trkpt lat="45.16476" lon="5.41218">
        <ele>458</ele>
        <time>2021-03-01T08:17:58Z</time>
      </trkpt>
      <trkpt lat="45.16469" lon="5.41192">
        <ele>460</ele>
        <time>2021-03-01T08:18:16Z</time>
      </trkpt>
      <trkpt lat="45.16459" lon="5.41171">
        <ele>462</ele>
        <time>2021-03-01T08:18:32Z</time>
      </trkpt>
      <trkpt lat="45.16452" lon="5.41146">
        <ele>460</ele>
        <time>2021-03-01T08:18:50Z</time>
      </trkpt>
      <trkpt lat="45.16433" lon="5.41142">
        <ele>467</ele>
        <time>2021-03-01T08:19:02Z</time>
      </trkpt>
      <trkpt lat="45.16423" lon="5.4112">
        <ele>465</ele>
        <time>2021-03-01T08:19:22Z</time>
      </trkpt>
      <trkpt lat="45.16406" lon="5.41107">
        <ele>467</ele>
        <time>2021-03-01T08:19:35Z</time>
      </trkpt>
      <trkpt lat="45.16392" lon="5.4109">
        <ele>466</ele>
        <time>2021-03-01T08:19:50Z</time>
      </trkpt>
      <trkpt lat="45.16374" lon="5.41084">
        <ele>470</ele>
        <time>2021-03-01T08:20:08Z</time>
      </trkpt>
      <trkpt lat="45.16356" lon="5.4108">
        <ele>476</ele>
        <time>2021-03-01T08:20:27Z</time>
      </trkpt>
      <trkpt lat="45.16371" lon="5.41096">
        <ele>475</ele>
        <time>2021-03-01T08:21:21Z</time>
      </trkpt>
      <trkpt lat="45.16385" lon="5.41115">
        <ele>477</ele>
        <time>2021-03-01T08:21:37Z</time>
      </trkpt>
      <trkpt lat="45.16395" lon="5.41137">
        <ele>480</ele>
        <time>2021-03-01T08:22:01Z</time>
      </trkpt>
      <trkpt lat="45.16376" lon="5.4114">
        <ele>486</ele>
        <time>2021-03-01T08:22:42Z</time>
      </trkpt>
      <trkpt lat="45.16345" lon="5.41127">
        <ele>493</ele>
        <time>2021-03-01T08:23:17Z</time>
      </trkpt>
      <trkpt lat="45.16352" lon="5.41152">
        <ele>496</ele>
        <time>2021-03-01T08:23:43Z</time>
      </trkpt>
      <trkpt lat="45.1636" lon="5.41175">
        <ele>499</ele>
        <time>2021-03-01T08:24:24Z</time>
      </trkpt>
      <trkpt lat="45.16372" lon="5.41196">
        <ele>499</ele>
        <time>2021-03-01T08:24:49Z</time>
      </trkpt>
      <trkpt lat="45.16371" lon="5.41222">
        <ele>502</ele>
        <time>2021-03-01T08:25:25Z</time>
      </trkpt>
      <trkpt lat="45.16356" lon="5.41235">
        <ele>509</ele>
        <time>2021-03-01T08:25:55Z</time>
      </trkpt>
      <trkpt lat="45.16342" lon="5.41253">
        <ele>516</ele>
        <time>2021-03-01T08:26:37Z</time>
      </trkpt>
      <trkpt lat="45.16327" lon="5.41266">
        <ele>523</ele>
        <time>2021-03-01T08:27:06Z</time>
      </trkpt>
      <trkpt lat="45.16311" lon="5.41281">
        <ele>530</ele>
        <time>2021-03-01T08:28:18Z</time>
      </trkpt>
      <trkpt lat="45.16296" lon="5.41268">
        <ele>537</ele>
        <time>2021-03-01T08:28:24Z</time>
      </trkpt>
      <trkpt lat="45.16291" lon="5.41242">
        <ele>539</ele>
        <time>2021-03-01T08:28:38Z</time>
      </trkpt>
      <trkpt lat="45.16288" lon="5.41215">
        <ele>539</ele>
        <time>2021-03-01T08:29:18Z</time>
      </trkpt>
      <trkpt lat="45.16284" lon="5.41188">
        <ele>540</ele>
        <time>2021-03-01T08:29:30Z</time>
      </trkpt>
      <trkpt lat="45.16271" lon="5.41205">
        <ele>548</ele>
        <time>2021-03-01T08:32:35Z</time>
      </trkpt>
      <trkpt lat="45.16261" lon="5.41228">
        <ele>555</ele>
        <time>2021-03-01T08:33:03Z</time>
      </trkpt>
      <trkpt lat="45.16251" lon="5.41248">
        <ele>562</ele>
        <time>2021-03-01T08:33:31Z</time>
      </trkpt>
      <trkpt lat="45.16248" lon="5.41275">
        <ele>561</ele>
        <time>2021-03-01T08:33:45Z</time>
      </trkpt>
      <trkpt lat="45.16232" lon="5.41293">
        <ele>567</ele>
        <time>2021-03-01T08:34:37Z</time>
      </trkpt>
      <trkpt lat="45.16224" lon="5.41317">
        <ele>568</ele>
        <time>2021-03-01T08:34:51Z</time>
      </trkpt>
      <trkpt lat="45.16207" lon="5.41331">
        <ele>574</ele>
        <time>2021-03-01T08:35:04Z</time>
      </trkpt>
      <trkpt lat="45.16196" lon="5.41352">
        <ele>576</ele>
        <time>2021-03-01T08:35:18Z</time>
      </trkpt>
      <trkpt lat="45.16179" lon="5.41364">
        <ele>582</ele>
        <time>2021-03-01T08:35:49Z</time>
      </trkpt>
      <trkpt lat="45.16161" lon="5.41367">
        <ele>587</ele>
        <time>2021-03-01T08:36:40Z</time>
      </trkpt>
      <trkpt lat="45.16143" lon="5.41365">
        <ele>593</ele>
        <time>2021-03-01T08:36:57Z</time>
      </trkpt>
      <trkpt lat="45.16132" lon="5.41343">
        <ele>596</ele>
        <time>2021-03-01T08:37:17Z</time>
      </trkpt>
      <trkpt lat="45.16121" lon="5.41322">
        <ele>598</ele>
        <time>2021-03-01T08:37:30Z</time>
      </trkpt>
      <trkpt lat="45.16108" lon="5.41304">
        <ele>597</ele>
        <time>2021-03-01T08:37:49Z</time>
      </trkpt>
      <trkpt lat="45.16094" lon="5.41284">
        <ele>597</ele>
        <time>2021-03-01T08:38:08Z</time>
      </trkpt>
      <trkpt lat="45.16083" lon="5.41261">
        <ele>597</ele>
        <time>2021-03-01T08:38:22Z</time>
      </trkpt>
      <trkpt lat="45.16086" lon="5.41236">
        <ele>593</ele>
        <time>2021-03-01T08:38:41Z</time>
      </trkpt>
      <trkpt lat="45.1608" lon="5.41211">
        <ele>592</ele>
        <time>2021-03-01T08:38:55Z</time>
      </trkpt>
      <trkpt lat="45.16086" lon="5.41185">
        <ele>587</ele>
        <time>2021-03-01T08:39:12Z</time>
      </trkpt>
      <trkpt lat="45.16081" lon="5.41159">
        <ele>586</ele>
        <time>2021-03-01T08:39:25Z</time>
      </trkpt>
      <trkpt lat="45.16081" lon="5.41133">
        <ele>583</ele>
        <time>2021-03-01T08:39:41Z</time>
      </trkpt>
      <trkpt lat="45.16095" lon="5.41114">
        <ele>576</ele>
        <time>2021-03-01T08:39:57Z</time>
      </trkpt>
      <trkpt lat="45.16081" lon="5.41094">
        <ele>579</ele>
        <time>2021-03-01T08:40:08Z</time>
      </trkpt>
      <trkpt lat="45.16065" lon="5.41079">
        <ele>583</ele>
        <time>2021-03-01T08:40:24Z</time>
      </trkpt>
      <trkpt lat="45.1605" lon="5.41065">
        <ele>588</ele>
        <time>2021-03-01T08:40:41Z</time>
      </trkpt>
      <trkpt lat="45.16045" lon="5.41038">
        <ele>587</ele>
        <time>2021-03-01T08:40:58Z</time>
      </trkpt>
      <trkpt lat="45.16034" lon="5.41018">
        <ele>588</ele>
        <time>2021-03-01T08:41:26Z</time>
      </trkpt>
      <trkpt lat="45.16016" lon="5.41012">
        <ele>594</ele>
        <time>2021-03-01T08:41:47Z</time>
      </trkpt>
      <trkpt lat="45.16001" lon="5.40996">
        <ele>595</ele>
        <time>2021-03-01T08:42:00Z</time>
      </trkpt>
      <trkpt lat="45.1599" lon="5.40974">
        <ele>597</ele>
        <time>2021-03-01T08:42:15Z</time>
      </trkpt>
      <trkpt lat="45.15972" lon="5.40973">
        <ele>603</ele>
        <time>2021-03-01T08:42:22Z</time>
      </trkpt>
      <trkpt lat="45.15955" lon="5.40962">
        <ele>610</ele>
        <time>2021-03-01T08:42:41Z</time>
      </trkpt>
      <trkpt lat="45.15937" lon="5.40955">
        <ele>616</ele>
        <time>2021-03-01T08:42:59Z</time>
      </trkpt>
      <trkpt lat="45.15919" lon="5.40941">
        <ele>623</ele>
        <time>2021-03-01T08:43:20Z</time>
      </trkpt>
      <trkpt lat="45.15906" lon="5.40959">
        <ele>624</ele>
        <time>2021-03-01T08:43:29Z</time>
      </trkpt>
      <trkpt lat="45.15905" lon="5.4093">
        <ele>626</ele>
        <time>2021-03-01T08:43:46Z</time>
      </trkpt>
      <trkpt lat="45.15889" lon="5.40943">
        <ele>629</ele>
        <time>2021-03-01T08:43:54Z</time>
      </trkpt>
      <trkpt lat="45.15876" lon="5.4092">
        <ele>631</ele>
        <time>2021-03-01T08:45:00Z</time>
      </trkpt>
      <trkpt lat="45.15863" lon="5.40901">
        <ele>635</ele>
        <time>2021-03-01T08:45:26Z</time>
      </trkpt>
      <trkpt lat="45.15844" lon="5.40897">
        <ele>637</ele>
        <time>2021-03-01T08:45:56Z</time>
      </trkpt>
      <trkpt lat="45.15826" lon="5.40898">
        <ele>638</ele>
        <time>2021-03-01T08:46:35Z</time>
      </trkpt>
      <trkpt lat="45.15808" lon="5.40885">
        <ele>646</ele>
        <time>2021-03-01T08:47:20Z</time>
      </trkpt>
      <trkpt lat="45.15798" lon="5.40864">
        <ele>655</ele>
        <time>2021-03-01T08:47:41Z</time>
      </trkpt>
      <trkpt lat="45.15781" lon="5.40873">
        <ele>654</ele>
        <time>2021-03-01T08:47:58Z</time>
      </trkpt>
      <trkpt lat="45.15762" lon="5.40869">
        <ele>659</ele>
        <time>2021-03-01T08:48:28Z</time>
      </trkpt>
      <trkpt lat="45.15744" lon="5.40865">
        <ele>664</ele>
        <time>2021-03-01T08:48:52Z</time>
      </trkpt>
      <trkpt lat="45.15724" lon="5.40868">
        <ele>665</ele>
        <time>2021-03-01T08:49:12Z</time>
      </trkpt>
      <trkpt lat="45.157" lon="5.40885">
        <ele>666</ele>
        <time>2021-03-01T08:49:57Z</time>
      </trkpt>
      <trkpt lat="45.15694" lon="5.40863">
        <ele>669</ele>
        <time>2021-03-01T08:50:10Z</time>
      </trkpt>
      <trkpt lat="45.15675" lon="5.40873">
        <ele>669</ele>
        <time>2021-03-01T08:50:34Z</time>
      </trkpt>
      <trkpt lat="45.15657" lon="5.40877">
        <ele>670</ele>
        <time>2021-03-01T08:50:52Z</time>
      </trkpt>
      <trkpt lat="45.15639" lon="5.40881">
        <ele>671</ele>
        <time>2021-03-01T08:51:21Z</time>
      </trkpt>
      <trkpt lat="45.15619" lon="5.40889">
        <ele>672</ele>
        <time>2021-03-01T08:52:19Z</time>
      </trkpt>
      <trkpt lat="45.15603" lon="5.40861">
        <ele>676</ele>
        <time>2021-03-01T08:53:34Z</time>
      </trkpt>
      <trkpt lat="45.15609" lon="5.40837">
        <ele>677</ele>
        <time>2021-03-01T08:55:41Z</time>
      </trkpt>
      <trkpt lat="45.15598" lon="5.4081">
        <ele>682</ele>
        <time>2021-03-01T08:56:27Z</time>
      </trkpt>
      <trkpt lat="45.15589" lon="5.40835">
        <ele>681</ele>
        <time>2021-03-01T08:56:46Z</time>
      </trkpt>
      <trkpt lat="45.15574" lon="5.4085">
        <ele>682</ele>
        <time>2021-03-01T08:57:03Z</time>
      </trkpt>
      <trkpt lat="45.15576" lon="5.40877">
        <ele>680</ele>
        <time>2021-03-01T08:57:24Z</time>
      </trkpt>
      <trkpt lat="45.15558" lon="5.40898">
        <ele>685</ele>
        <time>2021-03-01T08:57:42Z</time>
      </trkpt>
      <trkpt lat="45.15549" lon="5.40921">
        <ele>691</ele>
        <time>2021-03-01T08:58:03Z</time>
      </trkpt>
      <trkpt lat="45.15549" lon="5.40948">
        <ele>694</ele>
        <time>2021-03-01T08:59:16Z</time>
      </trkpt>
      <trkpt lat="45.15584" lon="5.40984">
        <ele>694</ele>
        <time>2021-03-01T09:00:00Z</time>
      </trkpt>
      <trkpt lat="45.15597" lon="5.41003">
        <ele>698</ele>
        <time>2021-03-01T09:01:05Z</time>
      </trkpt>
      <trkpt lat="45.1561" lon="5.41029">
        <ele>703</ele>
        <time>2021-03-01T09:01:12Z</time>
      </trkpt>
      <trkpt lat="45.15624" lon="5.4105">
        <ele>704</ele>
        <time>2021-03-01T09:01:18Z</time>
      </trkpt>
      <trkpt lat="45.15642" lon="5.41044">
        <ele>699</ele>
        <time>2021-03-01T09:01:30Z</time>
      </trkpt>
      <trkpt lat="45.15662" lon="5.41047">
        <ele>697</ele>
        <time>2021-03-01T09:02:58Z</time>
      </trkpt>
      <trkpt lat="45.15675" lon="5.41065">
        <ele>702</ele>
        <time>2021-03-01T09:03:07Z</time>
      </trkpt>
      <trkpt lat="45.15653" lon="5.41081">
        <ele>704</ele>
        <time>2021-03-01T09:05:10Z</time>
      </trkpt>
      <trkpt lat="45.15655" lon="5.41107">
        <ele>709</ele>
        <time>2021-03-01T09:05:30Z</time>
      </trkpt>
      <trkpt lat="45.15669" lon="5.41124">
        <ele>715</ele>
        <time>2021-03-01T09:05:46Z</time>
      </trkpt>
      <trkpt lat="45.15658" lon="5.41148">
        <ele>718</ele>
        <time>2021-03-01T09:06:03Z</time>
      </trkpt>
      <trkpt lat="45.1564" lon="5.41159">
        <ele>719</ele>
        <time>2021-03-01T09:06:12Z</time>
      </trkpt>
      <trkpt lat="45.1562" lon="5.41179">
        <ele>722</ele>
        <time>2021-03-01T09:06:22Z</time>
      </trkpt>
      <trkpt lat="45.15635" lon="5.41194">
        <ele>725</ele>
        <time>2021-03-01T09:06:32Z</time>
      </trkpt>
      <trkpt lat="45.15614" lon="5.41195">
        <ele>724</ele>
        <time>2021-03-01T09:06:44Z</time>
      </trkpt>
      <trkpt lat="45.15609" lon="5.4122">
        <ele>726</ele>
        <time>2021-03-01T09:07:15Z</time>
      </trkpt>
      <trkpt lat="45.1559" lon="5.41224">
        <ele>727</ele>
        <time>2021-03-01T09:07:31Z</time>
      </trkpt>
      <trkpt lat="45.15568" lon="5.41215">
        <ele>730</ele>
        <time>2021-03-01T09:07:43Z</time>
      </trkpt>
      <trkpt lat="45.15552" lon="5.41199">
        <ele>732</ele>
        <time>2021-03-01T09:08:04Z</time>
      </trkpt>
      <trkpt lat="45.15554" lon="5.41173">
        <ele>731</ele>
        <time>2021-03-01T09:08:23Z</time>
      </trkpt>
      <trkpt lat="45.15536" lon="5.41157">
        <ele>732</ele>
        <time>2021-03-01T09:08:29Z</time>
      </trkpt>
      <trkpt lat="45.15547" lon="5.41164">
        <ele>732</ele>
        <time>2021-03-01T09:09:07Z</time>
      </trkpt>
      <trkpt lat="45.15504" lon="5.41176">
        <ele>739</ele>
        <time>2021-03-01T09:11:20Z</time>
      </trkpt>
      <trkpt lat="45.1549" lon="5.41193">
        <ele>744</ele>
        <time>2021-03-01T09:11:27Z</time>
      </trkpt>
      <trkpt lat="45.15501" lon="5.41214">
        <ele>746</ele>
        <time>2021-03-01T09:12:14Z</time>
      </trkpt>
      <trkpt lat="45.15516" lon="5.4123">
        <ele>746</ele>
        <time>2021-03-01T09:12:38Z</time>
      </trkpt>
      <trkpt lat="45.15499" lon="5.41242">
        <ele>753</ele>
        <time>2021-03-01T09:12:55Z</time>
      </trkpt>
      <trkpt lat="45.15472" lon="5.4127">
        <ele>764</ele>
        <time>2021-03-01T09:13:14Z</time>
      </trkpt>
      <trkpt lat="45.15461" lon="5.41295">
        <ele>769</ele>
        <time>2021-03-01T09:13:33Z</time>
      </trkpt>
      <trkpt lat="45.15454" lon="5.41295">
        <ele>770</ele>
        <time>2021-03-01T09:16:01Z</time>
      </trkpt>
      <trkpt lat="45.15436" lon="5.41288">
        <ele>773</ele>
        <time>2021-03-01T09:16:18Z</time>
      </trkpt>
      <trkpt lat="45.15433" lon="5.41317">
        <ele>778</ele>
        <time>2021-03-01T09:16:28Z</time>
      </trkpt>
      <trkpt lat="45.15417" lon="5.41305">
        <ele>779</ele>
        <time>2021-03-01T09:16:51Z</time>
      </trkpt>
      <trkpt lat="45.15401" lon="5.41319">
        <ele>785</ele>
        <time>2021-03-01T09:17:07Z</time>
      </trkpt>
      <trkpt lat="45.15383" lon="5.41325">
        <ele>791</ele>
        <time>2021-03-01T09:17:36Z</time>
      </trkpt>
      <trkpt lat="45.1537" lon="5.4135">
        <ele>799</ele>
        <time>2021-03-01T09:17:44Z</time>
      </trkpt>
      <trkpt lat="45.15354" lon="5.41363">
        <ele>804</ele>
        <time>2021-03-01T09:18:20Z</time>
      </trkpt>
      <trkpt lat="45.15339" lon="5.41378">
        <ele>810</ele>
        <time>2021-03-01T09:18:59Z</time>
      </trkpt>
      <trkpt lat="45.15316" lon="5.41395">
        <ele>818</ele>
        <time>2021-03-01T09:19:11Z</time>
      </trkpt>
      <trkpt lat="45.15319" lon="5.4141">
        <ele>821</ele>
        <time>2021-03-01T09:20:13Z</time>
      </trkpt>
      <trkpt lat="45.15294" lon="5.41422">
        <ele>827</ele>
        <time>2021-03-01T09:20:24Z</time>
      </trkpt>
      <trkpt lat="45.15283" lon="5.4139">
        <ele>820</ele>
        <time>2021-03-01T09:20:34Z</time>
      </trkpt>
      <trkpt lat="45.15276" lon="5.41414">
        <ele>827</ele>
        <time>2021-03-01T09:20:57Z</time>
      </trkpt>
      <trkpt lat="45.15262" lon="5.41431">
        <ele>832</ele>
        <time>2021-03-01T09:21:13Z</time>
      </trkpt>
      <trkpt lat="45.15255" lon="5.41455">
        <ele>840</ele>
        <time>2021-03-01T09:23:44Z</time>
      </trkpt>
      <trkpt lat="45.15245" lon="5.4148">
        <ele>848</ele>
        <time>2021-03-01T09:23:51Z</time>
      </trkpt>
      <trkpt lat="45.15243" lon="5.41507">
        <ele>856</ele>
        <time>2021-03-01T09:23:58Z</time>
      </trkpt>
      <trkpt lat="45.1523" lon="5.41529">
        <ele>864</ele>
        <time>2021-03-01T09:24:12Z</time>
      </trkpt>
      <trkpt lat="45.15211" lon="5.41527">
        <ele>865</ele>
        <time>2021-03-01T09:24:28Z</time>
      </trkpt>
      <trkpt lat="45.15253" lon="5.41603">
        <ele>875</ele>
        <time>2021-03-01T09:25:17Z</time>
      </trkpt>
      <trkpt lat="45.1525" lon="5.4161">
        <ele>877</ele>
        <time>2021-03-01T09:26:28Z</time>
      </trkpt>
      <trkpt lat="45.1523" lon="5.41611">
        <ele>883</ele>
        <time>2021-03-01T09:26:40Z</time>
      </trkpt>
      <trkpt lat="45.15226" lon="5.41638">
        <ele>887</ele>
        <time>2021-03-01T09:31:06Z</time>
      </trkpt>
      <trkpt lat="45.15209" lon="5.4165">
        <ele>890</ele>
        <time>2021-03-01T09:31:50Z</time>
      </trkpt>
      <trkpt lat="45.15126" lon="5.41637">
        <ele>914</ele>
        <time>2021-03-01T09:37:18Z</time>
      </trkpt>
      <trkpt lat="45.15061" lon="5.41669">
        <ele>938</ele>
        <time>2021-03-01T09:39:49Z</time>
      </trkpt>
      <trkpt lat="45.14975" lon="5.41666">
        <ele>968</ele>
        <time>2021-03-01T09:43:02Z</time>
      </trkpt>
      <trkpt lat="45.14956" lon="5.4166">
        <ele>974</ele>
        <time>2021-03-01T09:43:21Z</time>
      </trkpt>
      <trkpt lat="45.14938" lon="5.41654">
        <ele>980</ele>
        <time>2021-03-01T09:43:30Z</time>
      </trkpt>
      <trkpt lat="45.1492" lon="5.41639">
        <ele>984</ele>
        <time>2021-03-01T09:43:57Z</time>
      </trkpt>
      <trkpt lat="45.1491" lon="5.41617">
        <ele>982</ele>
        <time>2021-03-01T09:44:16Z</time>
      </trkpt>
      <trkpt lat="45.14892" lon="5.4161">
        <ele>987</ele>
        <time>2021-03-01T09:44:45Z</time>
      </trkpt>
      <trkpt lat="45.14874" lon="5.41606">
        <ele>994</ele>
        <time>2021-03-01T09:45:57Z</time>
      </trkpt>
      <trkpt lat="45.14859" lon="5.41594">
        <ele>998</ele>
        <time>2021-03-01T09:46:10Z</time>
      </trkpt>
      <trkpt lat="45.1482" lon="5.41575">
        <ele>1009</ele>
        <time>2021-03-01T09:46:18Z</time>
      </trkpt>
      <trkpt lat="45.14802" lon="5.41561">
        <ele>1009</ele>
        <time>2021-03-01T09:47:59Z</time>
      </trkpt>
      <trkpt lat="45.14779" lon="5.41565">
        <ele>1015</ele>
        <time>2021-03-01T09:48:07Z</time>
      </trkpt>
      <trkpt lat="45.1476" lon="5.41554">
        <ele>1016</ele>
        <time>2021-03-01T09:48:10Z</time>
      </trkpt>
      <trkpt lat="45.14776" lon="5.41535">
        <ele>1005</ele>
        <time>2021-03-01T09:48:23Z</time>
      </trkpt>
      <trkpt lat="45.14756" lon="5.41535">
        <ele>1009</ele>
        <time>2021-03-01T09:51:17Z</time>
      </trkpt>
      <trkpt lat="45.14695" lon="5.41635">
        <ele>1054</ele>
        <time>2021-03-01T09:54:49Z</time>
      </trkpt>
      <trkpt lat="45.14729" lon="5.41702">
        <ele>1056</ele>
        <time>2021-03-01T09:55:51Z</time>
      </trkpt>
      <trkpt lat="45.1473" lon="5.41728">
        <ele>1061</ele>
        <time>2021-03-01T09:56:36Z</time>
      </trkpt>
      <trkpt lat="45.14731" lon="5.41756">
        <ele>1066</ele>
        <time>2021-03-01T09:56:55Z</time>
      </trkpt>
      <trkpt lat="45.14748" lon="5.41797">
        <ele>1070</ele>
        <time>2021-03-01T09:57:15Z</time>
      </trkpt>
      <trkpt lat="45.14766" lon="5.41804">
        <ele>1068</ele>
        <time>2021-03-01T09:57:29Z</time>
      </trkpt>
      <trkpt lat="45.14766" lon="5.41834">
        <ele>1074</ele>
        <time>2021-03-01T09:57:58Z</time>
      </trkpt>
      <trkpt lat="45.14775" lon="5.41858">
        <ele>1078</ele>
        <time>2021-03-01T09:58:21Z</time>
      </trkpt>
      <trkpt lat="45.14778" lon="5.41884">
        <ele>1082</ele>
        <time>2021-03-01T09:58:43Z</time>
      </trkpt>
      <trkpt lat="45.14789" lon="5.41905">
        <ele>1084</ele>
        <time>2021-03-01T09:59:07Z</time>
      </trkpt>
      <trkpt lat="45.14769" lon="5.41904">
        <ele>1089</ele>
        <time>2021-03-01T09:59:13Z</time>
      </trkpt>
      <trkpt lat="45.14783" lon="5.41921">
        <ele>1088</ele>
        <time>2021-03-01T09:59:16Z</time>
      </trkpt>
      <trkpt lat="45.14762" lon="5.41922">
        <ele>1094</ele>
        <time>2021-03-01T10:01:40Z</time>
      </trkpt>
      <trkpt lat="45.14744" lon="5.4192">
        <ele>1098</ele>
        <time>2021-03-01T10:01:49Z</time>
      </trkpt>
      <trkpt lat="45.14726" lon="5.41909">
        <ele>1099</ele>
        <time>2021-03-01T10:01:59Z</time>
      </trkpt>
      <trkpt lat="45.14709" lon="5.41904">
        <ele>1102</ele>
        <time>2021-03-01T10:03:16Z</time>
      </trkpt>
      <trkpt lat="45.14619" lon="5.41879">
        <ele>1119</ele>
        <time>2021-03-01T10:05:32Z</time>
      </trkpt>
      <trkpt lat="45.14601" lon="5.41889">
        <ele>1128</ele>
        <time>2021-03-01T10:05:48Z</time>
      </trkpt>
      <trkpt lat="45.14582" lon="5.41871">
        <ele>1128</ele>
        <time>2021-03-01T10:05:50Z</time>
      </trkpt>
      <trkpt lat="45.14566" lon="5.41854">
        <ele>1128</ele>
        <time>2021-03-01T10:06:21Z</time>
      </trkpt>
      <trkpt lat="45.14546" lon="5.41856">
        <ele>1135</ele>
        <time>2021-03-01T10:06:46Z</time>
      </trkpt>
      <trkpt lat="45.14527" lon="5.41849">
        <ele>1138</ele>
        <time>2021-03-01T10:06:54Z</time>
      </trkpt>
      <trkpt lat="45.14512" lon="5.41831">
        <ele>1135</ele>
        <time>2021-03-01T10:07:14Z</time>
      </trkpt>
      <trkpt lat="45.14498" lon="5.41811">
        <ele>1132</ele>
        <time>2021-03-01T10:08:06Z</time>
      </trkpt>
      <trkpt lat="45.14482" lon="5.41795">
        <ele>1129</ele>
        <time>2021-03-01T10:08:16Z</time>
      </trkpt>
      <trkpt lat="45.14464" lon="5.41787">
        <ele>1130</ele>
        <time>2021-03-01T10:08:25Z</time>
      </trkpt>
      <trkpt lat="45.14444" lon="5.41777">
        <ele>1129</ele>
        <time>2021-03-01T10:08:35Z</time>
      </trkpt>
      <trkpt lat="45.14446" lon="5.41802">
        <ele>1136</ele>
        <time>2021-03-01T10:08:54Z</time>
      </trkpt>
      <trkpt lat="45.14428" lon="5.41795">
        <ele>1135</ele>
        <time>2021-03-01T10:09:10Z</time>
      </trkpt>
      <trkpt lat="45.14411" lon="5.41805">
        <ele>1137</ele>
        <time>2021-03-01T10:09:19Z</time>
      </trkpt>
      <trkpt lat="45.14393" lon="5.41821">
        <ele>1139</ele>
        <time>2021-03-01T10:09:33Z</time>
      </trkpt>
      <trkpt lat="45.14375" lon="5.41826">
        <ele>1138</ele>
        <time>2021-03-01T10:09:54Z</time>
      </trkpt>
      <trkpt lat="45.14355" lon="5.41821">
        <ele>1137</ele>
        <time>2021-03-01T10:10:01Z</time>
      </trkpt>
      <trkpt lat="45.14342" lon="5.41841">
        <ele>1140</ele>
        <time>2021-03-01T10:11:01Z</time>
      </trkpt>
      <trkpt lat="45.14336" lon="5.41866">
        <ele>1142</ele>
        <time>2021-03-01T10:11:15Z</time>
      </trkpt>
      <trkpt lat="45.14337" lon="5.41892">
        <ele>1144</ele>
        <time>2021-03-01T10:11:34Z</time>
      </trkpt>
      <trkpt lat="45.14332" lon="5.41917">
        <ele>1145</ele>
        <time>2021-03-01T10:11:52Z</time>
      </trkpt>
      <trkpt lat="45.14322" lon="5.41939">
        <ele>1145</ele>
        <time>2021-03-01T10:12:13Z</time>
      </trkpt>
      <trkpt lat="45.14306" lon="5.41954">
        <ele>1146</ele>
        <time>2021-03-01T10:12:36Z</time>
      </trkpt>
      <trkpt lat="45.14289" lon="5.41961">
        <ele>1146</ele>
        <time>2021-03-01T10:12:54Z</time>
      </trkpt>
      <trkpt lat="45.14272" lon="5.4197">
        <ele>1146</ele>
        <time>2021-03-01T10:13:16Z</time>
      </trkpt>
      <trkpt lat="45.14254" lon="5.41976">
        <ele>1146</ele>
        <time>2021-03-01T10:13:39Z</time>
      </trkpt>
      <trkpt lat="45.14235" lon="5.41977">
        <ele>1147</ele>
        <time>2021-03-01T10:13:58Z</time>
      </trkpt>
      <trkpt lat="45.14217" lon="5.41981">
        <ele>1147</ele>
        <time>2021-03-01T10:14:23Z</time>
      </trkpt>
      <trkpt lat="45.14198" lon="5.4198">
        <ele>1148</ele>
        <time>2021-03-01T10:14:41Z</time>
      </trkpt>
      <trkpt lat="45.14179" lon="5.41978">
        <ele>1148</ele>
        <time>2021-03-01T10:20:31Z</time>
      </trkpt>
      <trkpt lat="45.1416" lon="5.41978">
        <ele>1149</ele>
        <time>2021-03-01T10:20:55Z</time>
      </trkpt>
      <trkpt lat="45.14142" lon="5.41976">
        <ele>1150</ele>
        <time>2021-03-01T10:21:15Z</time>
      </trkpt>
      <trkpt lat="45.14123" lon="5.41972">
        <ele>1153</ele>
        <time>2021-03-01T10:21:33Z</time>
      </trkpt>
      <trkpt lat="45.14106" lon="5.4198">
        <ele>1153</ele>
        <time>2021-03-01T10:21:50Z</time>
      </trkpt>
      <trkpt lat="45.14094" lon="5.41999">
        <ele>1150</ele>
        <time>2021-03-01T10:22:05Z</time>
      </trkpt>
      <trkpt lat="45.14087" lon="5.42023">
        <ele>1145</ele>
        <time>2021-03-01T10:22:22Z</time>
      </trkpt>
      <trkpt lat="45.14075" lon="5.42043">
        <ele>1141</ele>
        <time>2021-03-01T10:22:38Z</time>
      </trkpt>
      <trkpt lat="45.14058" lon="5.42056">
        <ele>1140</ele>
        <time>2021-03-01T10:22:54Z</time>
      </trkpt>
      <trkpt lat="45.14041" lon="5.42066">
        <ele>1140</ele>
        <time>2021-03-01T10:23:09Z</time>
      </trkpt>
      <trkpt lat="45.14025" lon="5.42078">
        <ele>1140</ele>
        <time>2021-03-01T10:23:37Z</time>
      </trkpt>
      <trkpt lat="45.1403" lon="5.42104">
        <ele>1138</ele>
        <time>2021-03-01T10:23:52Z</time>
      </trkpt>
      <trkpt lat="45.14044" lon="5.42123">
        <ele>1135</ele>
        <time>2021-03-01T10:24:07Z</time>
      </trkpt>
      <trkpt lat="45.14057" lon="5.42142">
        <ele>1132</ele>
        <time>2021-03-01T10:24:44Z</time>
      </trkpt>
      <trkpt lat="45.14073" lon="5.42154">
        <ele>1128</ele>
        <time>2021-03-01T10:25:01Z</time>
      </trkpt>
      <trkpt lat="45.14089" lon="5.42167">
        <ele>1125</ele>
        <time>2021-03-01T10:25:15Z</time>
      </trkpt>
      <trkpt lat="45.14088" lon="5.42192">
        <ele>1126</ele>
        <time>2021-03-01T10:25:39Z</time>
      </trkpt>
      <trkpt lat="45.14072" lon="5.42204">
        <ele>1128</ele>
        <time>2021-03-01T10:25:55Z</time>
      </trkpt>
      <trkpt lat="45.14057" lon="5.4222">
        <ele>1127</ele>
        <time>2021-03-01T10:26:11Z</time>
      </trkpt>
      <trkpt lat="45.1405" lon="5.42243">
        <ele>1123</ele>
        <time>2021-03-01T10:26:26Z</time>
      </trkpt>
      <trkpt lat="45.14048" lon="5.42269">
        <ele>1118</ele>
        <time>2021-03-01T10:26:45Z</time>
      </trkpt>
      <trkpt lat="45.14048" lon="5.42296">
        <ele>1114</ele>
        <time>2021-03-01T10:27:13Z</time>
      </trkpt>
      <trkpt lat="45.14051" lon="5.42322">
        <ele>1111</ele>
        <time>2021-03-01T10:27:26Z</time>
      </trkpt>
      <trkpt lat="45.14051" lon="5.42348">
        <ele>1109</ele>
        <time>2021-03-01T10:27:40Z</time>
      </trkpt>
      <trkpt lat="45.14053" lon="5.42374">
        <ele>1107</ele>
        <time>2021-03-01T10:27:58Z</time>
      </trkpt>
      <trkpt lat="45.14059" lon="5.42399">
        <ele>1104</ele>
        <time>2021-03-01T10:28:14Z</time>
      </trkpt>
      <trkpt lat="45.14063" lon="5.42424">
        <ele>1103</ele>
        <time>2021-03-01T10:28:29Z</time>
      </trkpt>
      <trkpt lat="45.14071" lon="5.42449">
        <ele>1100</ele>
        <time>2021-03-01T10:28:44Z</time>
      </trkpt>
      <trkpt lat="45.14077" lon="5.42474">
        <ele>1098</ele>
        <time>2021-03-01T10:28:59Z</time>
      </trkpt>
      <trkpt lat="45.14088" lon="5.42496">
        <ele>1095</ele>
        <time>2021-03-01T10:29:13Z</time>
      </trkpt>
      <trkpt lat="45.14099" lon="5.42517">
        <ele>1093</ele>
        <time>2021-03-01T10:29:29Z</time>
      </trkpt>
      <trkpt lat="45.14103" lon="5.42543">
        <ele>1092</ele>
        <time>2021-03-01T10:29:46Z</time>
      </trkpt>
      <trkpt lat="45.14104" lon="5.42568">
        <ele>1092</ele>
        <time>2021-03-01T10:30:06Z</time>
      </trkpt>
      <trkpt lat="45.14103" lon="5.42595">
        <ele>1092</ele>
        <time>2021-03-01T10:30:21Z</time>
      </trkpt>
      <trkpt lat="45.14099" lon="5.4262">
        <ele>1090</ele>
        <time>2021-03-01T10:30:37Z</time>
      </trkpt>
      <trkpt lat="45.14093" lon="5.42646">
        <ele>1088</ele>
        <time>2021-03-01T10:30:54Z</time>
      </trkpt>
      <trkpt lat="45.14088" lon="5.42671">
        <ele>1084</ele>
        <time>2021-03-01T10:31:09Z</time>
      </trkpt>
      <trkpt lat="45.14076" lon="5.4269">
        <ele>1081</ele>
        <time>2021-03-01T10:31:26Z</time>
      </trkpt>
      <trkpt lat="45.14065" lon="5.42712">
        <ele>1078</ele>
        <time>2021-03-01T10:32:56Z</time>
      </trkpt>
      <trkpt lat="45.14059" lon="5.42737">
        <ele>1075</ele>
        <time>2021-03-01T10:33:12Z</time>
      </trkpt>
      <trkpt lat="45.14051" lon="5.42761">
        <ele>1074</ele>
        <time>2021-03-01T10:33:27Z</time>
      </trkpt>
      <trkpt lat="45.14046" lon="5.42787">
        <ele>1072</ele>
        <time>2021-03-01T10:33:42Z</time>
      </trkpt>
      <trkpt lat="45.14045" lon="5.42814">
        <ele>1066</ele>
        <time>2021-03-01T10:33:56Z</time>
      </trkpt>
      <trkpt lat="45.14047" lon="5.42841">
        <ele>1059</ele>
        <time>2021-03-01T10:34:10Z</time>
      </trkpt>
      <trkpt lat="45.14043" lon="5.42867">
        <ele>1057</ele>
        <time>2021-03-01T10:34:25Z</time>
      </trkpt>
      <trkpt lat="45.14038" lon="5.42893">
        <ele>1056</ele>
        <time>2021-03-01T10:34:38Z</time>
      </trkpt>
      <trkpt lat="45.14032" lon="5.42918">
        <ele>1057</ele>
        <time>2021-03-01T10:34:53Z</time>
      </trkpt>
      <trkpt lat="45.14029" lon="5.42944">
        <ele>1057</ele>
        <time>2021-03-01T10:35:07Z</time>
      </trkpt>
      <trkpt lat="45.14034" lon="5.4297">
        <ele>1052</ele>
        <time>2021-03-01T10:35:21Z</time>
      </trkpt>
      <trkpt lat="45.14043" lon="5.42993">
        <ele>1044</ele>
        <time>2021-03-01T10:35:38Z</time>
      </trkpt>
      <trkpt lat="45.14045" lon="5.4302">
        <ele>1040</ele>
        <time>2021-03-01T10:35:53Z</time>
      </trkpt>
      <trkpt lat="45.14041" lon="5.43046">
        <ele>1040</ele>
        <time>2021-03-01T10:36:07Z</time>
      </trkpt>
      <trkpt lat="45.14036" lon="5.43071">
        <ele>1038</ele>
        <time>2021-03-01T10:36:23Z</time>
      </trkpt>
      <trkpt lat="45.14035" lon="5.43097">
        <ele>1034</ele>
        <time>2021-03-01T10:36:35Z</time>
      </trkpt>
      <trkpt lat="45.14023" lon="5.43117">
        <ele>1035</ele>
        <time>2021-03-01T10:37:11Z</time>
      </trkpt>
      <trkpt lat="45.14011" lon="5.43137">
        <ele>1035</ele>
        <time>2021-03-01T10:37:27Z</time>
      </trkpt>
      <trkpt lat="45.14002" lon="5.43159">
        <ele>1032</ele>
        <time>2021-03-01T10:37:41Z</time>
      </trkpt>
      <trkpt lat="45.1399" lon="5.43179">
        <ele>1033</ele>
        <time>2021-03-01T10:37:55Z</time>
      </trkpt>
      <trkpt lat="45.13987" lon="5.43205">
        <ele>1028</ele>
        <time>2021-03-01T10:38:09Z</time>
      </trkpt>
      <trkpt lat="45.13982" lon="5.4323">
        <ele>1024</ele>
        <time>2021-03-01T10:38:23Z</time>
      </trkpt>
      <trkpt lat="45.13978" lon="5.43257">
        <ele>1021</ele>
        <time>2021-03-01T10:38:39Z</time>
      </trkpt>
      <trkpt lat="45.13975" lon="5.43283">
        <ele>1018</ele>
        <time>2021-03-01T10:38:57Z</time>
      </trkpt>
      <trkpt lat="45.13973" lon="5.43309">
        <ele>1016</ele>
        <time>2021-03-01T10:39:10Z</time>
      </trkpt>
      <trkpt lat="45.13977" lon="5.43335">
        <ele>1013</ele>
        <time>2021-03-01T10:39:27Z</time>
      </trkpt>
      <trkpt lat="45.13982" lon="5.43361">
        <ele>1009</ele>
        <time>2021-03-01T10:39:43Z</time>
      </trkpt>
      <trkpt lat="45.13989" lon="5.43385">
        <ele>1005</ele>
        <time>2021-03-01T10:40:00Z</time>
      </trkpt>
      <trkpt lat="45.14001" lon="5.43364">
        <ele>1004</ele>
        <time>2021-03-01T10:40:38Z</time>
      </trkpt>
      <trkpt lat="45.14006" lon="5.4334">
        <ele>1005</ele>
        <time>2021-03-01T10:40:55Z</time>
      </trkpt>
      <trkpt lat="45.1401" lon="5.43314">
        <ele>1005</ele>
        <time>2021-03-01T10:41:11Z</time>
      </trkpt>
      <trkpt lat="45.14021" lon="5.43291">
        <ele>1002</ele>
        <time>2021-03-01T10:41:37Z</time>
      </trkpt>
      <trkpt lat="45.14028" lon="5.43266">
        <ele>1003</ele>
        <time>2021-03-01T10:41:51Z</time>
      </trkpt>
      <trkpt lat="45.14041" lon="5.43249">
        <ele>1000</ele>
        <time>2021-03-01T10:44:39Z</time>
      </trkpt>
      <trkpt lat="45.14057" lon="5.43263">
        <ele>993</ele>
        <time>2021-03-01T10:45:21Z</time>
      </trkpt>
      <trkpt lat="45.14076" lon="5.43266">
        <ele>986</ele>
        <time>2021-03-01T10:45:39Z</time>
      </trkpt>
      <trkpt lat="45.14093" lon="5.43276">
        <ele>978</ele>
        <time>2021-03-01T10:45:58Z</time>
      </trkpt>
      <trkpt lat="45.1411" lon="5.43289">
        <ele>971</ele>
        <time>2021-03-01T10:46:19Z</time>
      </trkpt>
      <trkpt lat="45.14127" lon="5.43298">
        <ele>965</ele>
        <time>2021-03-01T10:46:50Z</time>
      </trkpt>
      <trkpt lat="45.14111" lon="5.4331">
        <ele>964</ele>
        <time>2021-03-01T10:47:53Z</time>
      </trkpt>
      <trkpt lat="45.14098" lon="5.43328">
        <ele>963</ele>
        <time>2021-03-01T10:48:11Z</time>
      </trkpt>
      <trkpt lat="45.14082" lon="5.4334">
        <ele>968</ele>
        <time>2021-03-01T10:48:32Z</time>
      </trkpt>
      <trkpt lat="45.14067" lon="5.43355">
        <ele>973</ele>
        <time>2021-03-01T10:48:46Z</time>
      </trkpt>
      <trkpt lat="45.14061" lon="5.4338">
        <ele>970</ele>
        <time>2021-03-01T10:49:04Z</time>
      </trkpt>
      <trkpt lat="45.14059" lon="5.43406">
        <ele>965</ele>
        <time>2021-03-01T10:49:19Z</time>
      </trkpt>
      <trkpt lat="45.14055" lon="5.43433">
        <ele>959</ele>
        <time>2021-03-01T10:49:41Z</time>
      </trkpt>
      <trkpt lat="45.14049" lon="5.43459">
        <ele>953</ele>
        <time>2021-03-01T10:49:52Z</time>
      </trkpt>
      <trkpt lat="45.14037" lon="5.43481">
        <ele>954</ele>
        <time>2021-03-01T10:50:05Z</time>
      </trkpt>
      <trkpt lat="45.14026" lon="5.43501">
        <ele>956</ele>
        <time>2021-03-01T10:50:19Z</time>
      </trkpt>
      <trkpt lat="45.14013" lon="5.43521">
        <ele>960</ele>
        <time>2021-03-01T10:50:40Z</time>
      </trkpt>
      <trkpt lat="45.14006" lon="5.43544">
        <ele>958</ele>
        <time>2021-03-01T10:50:57Z</time>
      </trkpt>
      <trkpt lat="45.14009" lon="5.4357">
        <ele>952</ele>
        <time>2021-03-01T10:51:11Z</time>
      </trkpt>
      <trkpt lat="45.1401" lon="5.43596">
        <ele>948</ele>
        <time>2021-03-01T10:51:26Z</time>
      </trkpt>
      <trkpt lat="45.14002" lon="5.4362">
        <ele>948</ele>
        <time>2021-03-01T10:51:41Z</time>
      </trkpt>
      <trkpt lat="45.13988" lon="5.43636">
        <ele>951</ele>
        <time>2021-03-01T10:51:55Z</time>
      </trkpt>
      <trkpt lat="45.13977" lon="5.43658">
        <ele>950</ele>
        <time>2021-03-01T10:52:19Z</time>
      </trkpt>
      <trkpt lat="45.13983" lon="5.43683">
        <ele>949</ele>
        <time>2021-03-01T10:52:47Z</time>
      </trkpt>
      <trkpt lat="45.13995" lon="5.43703">
        <ele>948</ele>
        <time>2021-03-01T10:53:06Z</time>
      </trkpt>
      <trkpt lat="45.14007" lon="5.43724">
        <ele>948</ele>
        <time>2021-03-01T10:53:21Z</time>
      </trkpt>
      <trkpt lat="45.14017" lon="5.43745">
        <ele>949</ele>
        <time>2021-03-01T10:53:52Z</time>
      </trkpt>
      <trkpt lat="45.14026" lon="5.43768">
        <ele>950</ele>
        <time>2021-03-01T10:54:08Z</time>
      </trkpt>
      <trkpt lat="45.14031" lon="5.43793">
        <ele>952</ele>
        <time>2021-03-01T10:54:26Z</time>
      </trkpt>
      <trkpt lat="45.14027" lon="5.43819">
        <ele>954</ele>
        <time>2021-03-01T10:54:41Z</time>
      </trkpt>
      <trkpt lat="45.1403" lon="5.43845">
        <ele>956</ele>
        <time>2021-03-01T10:55:01Z</time>
      </trkpt>
      <trkpt lat="45.14049" lon="5.43843">
        <ele>956</ele>
        <time>2021-03-01T10:55:44Z</time>
      </trkpt>
      <trkpt lat="45.14064" lon="5.43829">
        <ele>958</ele>
        <time>2021-03-01T10:56:06Z</time>
      </trkpt>
      <trkpt lat="45.14079" lon="5.43813">
        <ele>960</ele>
        <time>2021-03-01T10:56:28Z</time>
      </trkpt>
      <trkpt lat="45.14086" lon="5.43787">
        <ele>959</ele>
        <time>2021-03-01T10:56:45Z</time>
      </trkpt>
      <trkpt lat="45.14091" lon="5.4376">
        <ele>958</ele>
        <time>2021-03-01T10:57:04Z</time>
      </trkpt>
      <trkpt lat="45.14099" lon="5.43737">
        <ele>959</ele>
        <time>2021-03-01T10:57:22Z</time>
      </trkpt>
      <trkpt lat="45.1411" lon="5.43717">
        <ele>960</ele>
        <time>2021-03-01T10:57:40Z</time>
      </trkpt>
      <trkpt lat="45.14125" lon="5.43701">
        <ele>963</ele>
        <time>2021-03-01T10:57:58Z</time>
      </trkpt>
      <trkpt lat="45.14143" lon="5.43692">
        <ele>966</ele>
        <time>2021-03-01T10:58:14Z</time>
      </trkpt>
      <trkpt lat="45.14159" lon="5.43703">
        <ele>967</ele>
        <time>2021-03-01T10:58:29Z</time>
      </trkpt>
      <trkpt lat="45.14175" lon="5.43716">
        <ele>968</ele>
        <time>2021-03-01T10:58:46Z</time>
      </trkpt>
      <trkpt lat="45.14193" lon="5.4372">
        <ele>967</ele>
        <time>2021-03-01T10:59:03Z</time>
      </trkpt>
      <trkpt lat="45.1421" lon="5.43729">
        <ele>967</ele>
        <time>2021-03-01T10:59:20Z</time>
      </trkpt>
      <trkpt lat="45.14226" lon="5.43742">
        <ele>968</ele>
        <time>2021-03-01T10:59:36Z</time>
      </trkpt>
      <trkpt lat="45.14244" lon="5.4375">
        <ele>969</ele>
        <time>2021-03-01T10:59:51Z</time>
      </trkpt>
      <trkpt lat="45.14262" lon="5.43759">
        <ele>970</ele>
        <time>2021-03-01T11:00:09Z</time>
      </trkpt>
      <trkpt lat="45.1428" lon="5.43764">
        <ele>970</ele>
        <time>2021-03-01T11:00:26Z</time>
      </trkpt>
      <trkpt lat="45.14298" lon="5.43769">
        <ele>970</ele>
        <time>2021-03-01T11:00:42Z</time>
      </trkpt>
      <trkpt lat="45.14316" lon="5.43773">
        <ele>969</ele>
        <time>2021-03-01T11:00:59Z</time>
      </trkpt>
      <trkpt lat="45.14335" lon="5.43767">
        <ele>967</ele>
        <time>2021-03-01T11:01:23Z</time>
      </trkpt>
      <trkpt lat="45.14354" lon="5.43762">
        <ele>965</ele>
        <time>2021-03-01T11:01:36Z</time>
      </trkpt>
      <trkpt lat="45.14372" lon="5.4376">
        <ele>963</ele>
        <time>2021-03-01T11:01:53Z</time>
      </trkpt>
      <trkpt lat="45.1439" lon="5.4376">
        <ele>962</ele>
        <time>2021-03-01T11:02:07Z</time>
      </trkpt>
      <trkpt lat="45.14408" lon="5.43753">
        <ele>959</ele>
        <time>2021-03-01T11:02:23Z</time>
      </trkpt>
      <trkpt lat="45.14426" lon="5.4375">
        <ele>957</ele>
        <time>2021-03-01T11:02:39Z</time>
      </trkpt>
      <trkpt lat="45.14444" lon="5.43756">
        <ele>956</ele>
        <time>2021-03-01T11:02:54Z</time>
      </trkpt>
      <trkpt lat="45.14462" lon="5.43758">
        <ele>954</ele>
        <time>2021-03-01T11:03:10Z</time>
      </trkpt>
      <trkpt lat="45.1448" lon="5.43765">
        <ele>953</ele>
        <time>2021-03-01T11:03:28Z</time>
      </trkpt>
      <trkpt lat="45.14498" lon="5.43774">
        <ele>953</ele>
        <time>2021-03-01T11:03:43Z</time>
      </trkpt>
      <trkpt lat="45.14516" lon="5.4378">
        <ele>952</ele>
        <time>2021-03-01T11:04:01Z</time>
      </trkpt>
      <trkpt lat="45.14534" lon="5.43784">
        <ele>951</ele>
        <time>2021-03-01T11:04:21Z</time>
      </trkpt>
      <trkpt lat="45.14553" lon="5.43785">
        <ele>949</ele>
        <time>2021-03-01T11:04:37Z</time>
      </trkpt>
      <trkpt lat="45.14571" lon="5.4378">
        <ele>947</ele>
        <time>2021-03-01T11:04:55Z</time>
      </trkpt>
      <trkpt lat="45.14589" lon="5.4378">
        <ele>945</ele>
        <time>2021-03-01T11:05:15Z</time>
      </trkpt>
      <trkpt lat="45.14608" lon="5.43779">
        <ele>943</ele>
        <time>2021-03-01T11:05:34Z</time>
      </trkpt>
      <trkpt lat="45.14625" lon="5.4377">
        <ele>940</ele>
        <time>2021-03-01T11:05:57Z</time>
      </trkpt>
      <trkpt lat="45.14644" lon="5.43769">
        <ele>938</ele>
        <time>2021-03-01T11:06:10Z</time>
      </trkpt>
      <trkpt lat="45.14659" lon="5.43754">
        <ele>935</ele>
        <time>2021-03-01T11:06:28Z</time>
      </trkpt>
      <trkpt lat="45.14677" lon="5.43746">
        <ele>932</ele>
        <time>2021-03-01T11:07:01Z</time>
      </trkpt>
      <trkpt lat="45.14691" lon="5.43762">
        <ele>931</ele>
        <time>2021-03-01T11:07:20Z</time>
      </trkpt>
      <trkpt lat="45.14706" lon="5.43779">
        <ele>930</ele>
        <time>2021-03-01T11:07:35Z</time>
      </trkpt>
      <trkpt lat="45.14718" lon="5.438">
        <ele>930</ele>
        <time>2021-03-01T11:07:51Z</time>
      </trkpt>
      <trkpt lat="45.14729" lon="5.4382">
        <ele>932</ele>
        <time>2021-03-01T11:08:07Z</time>
      </trkpt>
      <trkpt lat="45.14742" lon="5.4384">
        <ele>933</ele>
        <time>2021-03-01T11:08:24Z</time>
      </trkpt>
      <trkpt lat="45.14756" lon="5.43859">
        <ele>935</ele>
        <time>2021-03-01T11:08:44Z</time>
      </trkpt>
      <trkpt lat="45.14771" lon="5.43874">
        <ele>937</ele>
        <time>2021-03-01T11:09:05Z</time>
      </trkpt>
      <trkpt lat="45.14786" lon="5.43888">
        <ele>938</ele>
        <time>2021-03-01T11:09:30Z</time>
      </trkpt>
      <trkpt lat="45.14805" lon="5.4389">
        <ele>937</ele>
        <time>2021-03-01T11:09:49Z</time>
      </trkpt>
      <trkpt lat="45.14823" lon="5.43883">
        <ele>937</ele>
        <time>2021-03-01T11:10:58Z</time>
      </trkpt>
      <trkpt lat="45.14823" lon="5.4391">
        <ele>938</ele>
        <time>2021-03-01T11:58:55Z</time>
      </trkpt>
      <trkpt lat="45.14883" lon="5.43918">
        <ele>936</ele>
        <time>2021-03-01T12:02:14Z</time>
      </trkpt>
      <trkpt lat="45.14868" lon="5.43936">
        <ele>935</ele>
        <time>2021-03-01T12:02:17Z</time>
      </trkpt>
      <trkpt lat="45.14886" lon="5.43945">
        <ele>934</ele>
        <time>2021-03-01T12:02:32Z</time>
      </trkpt>
      <trkpt lat="45.14891" lon="5.43969">
        <ele>931</ele>
        <time>2021-03-01T12:02:45Z</time>
      </trkpt>
      <trkpt lat="45.14904" lon="5.43988">
        <ele>930</ele>
        <time>2021-03-01T12:03:01Z</time>
      </trkpt>
      <trkpt lat="45.14908" lon="5.44014">
        <ele>927</ele>
        <time>2021-03-01T12:03:19Z</time>
      </trkpt>
      <trkpt lat="45.14927" lon="5.4402">
        <ele>923</ele>
        <time>2021-03-01T12:03:41Z</time>
      </trkpt>
      <trkpt lat="45.14942" lon="5.44036">
        <ele>917</ele>
        <time>2021-03-01T12:04:29Z</time>
      </trkpt>
      <trkpt lat="45.14961" lon="5.44043">
        <ele>911</ele>
        <time>2021-03-01T12:04:39Z</time>
      </trkpt>
      <trkpt lat="45.14969" lon="5.44068">
        <ele>916</ele>
        <time>2021-03-01T12:04:48Z</time>
      </trkpt>
      <trkpt lat="45.14986" lon="5.44077">
        <ele>915</ele>
        <time>2021-03-01T12:05:00Z</time>
      </trkpt>
      <trkpt lat="45.15001" lon="5.44093">
        <ele>914</ele>
        <time>2021-03-01T12:05:16Z</time>
      </trkpt>
      <trkpt lat="45.1502" lon="5.44098">
        <ele>909</ele>
        <time>2021-03-01T12:05:30Z</time>
      </trkpt>
      <trkpt lat="45.1504" lon="5.44102">
        <ele>904</ele>
        <time>2021-03-01T12:05:45Z</time>
      </trkpt>
      <trkpt lat="45.15056" lon="5.44113">
        <ele>902</ele>
        <time>2021-03-01T12:06:04Z</time>
      </trkpt>
      <trkpt lat="45.15069" lon="5.44131">
        <ele>901</ele>
        <time>2021-03-01T12:06:25Z</time>
      </trkpt>
      <trkpt lat="45.15088" lon="5.44122">
        <ele>894</ele>
        <time>2021-03-01T12:06:30Z</time>
      </trkpt>
      <trkpt lat="45.15105" lon="5.44177">
        <ele>900</ele>
        <time>2021-03-01T12:07:14Z</time>
      </trkpt>
      <trkpt lat="45.15126" lon="5.44175">
        <ele>893</ele>
        <time>2021-03-01T12:07:28Z</time>
      </trkpt>
      <trkpt lat="45.15142" lon="5.44187">
        <ele>891</ele>
        <time>2021-03-01T12:08:47Z</time>
      </trkpt>
      <trkpt lat="45.15161" lon="5.44199">
        <ele>887</ele>
        <time>2021-03-01T12:09:04Z</time>
      </trkpt>
      <trkpt lat="45.15181" lon="5.44212">
        <ele>883</ele>
        <time>2021-03-01T12:09:14Z</time>
      </trkpt>
      <trkpt lat="45.15201" lon="5.44224">
        <ele>879</ele>
        <time>2021-03-01T12:09:36Z</time>
      </trkpt>
      <trkpt lat="45.15215" lon="5.44243">
        <ele>878</ele>
        <time>2021-03-01T12:09:59Z</time>
      </trkpt>
      <trkpt lat="45.15232" lon="5.44253">
        <ele>874</ele>
        <time>2021-03-01T12:10:10Z</time>
      </trkpt>
      <trkpt lat="45.15248" lon="5.44266">
        <ele>870</ele>
        <time>2021-03-01T12:10:29Z</time>
      </trkpt>
      <trkpt lat="45.1526" lon="5.44289">
        <ele>868</ele>
        <time>2021-03-01T12:10:52Z</time>
      </trkpt>
      <trkpt lat="45.1527" lon="5.44311">
        <ele>868</ele>
        <time>2021-03-01T12:11:12Z</time>
      </trkpt>
      <trkpt lat="45.15278" lon="5.44335">
        <ele>867</ele>
        <time>2021-03-01T12:11:38Z</time>
      </trkpt>
      <trkpt lat="45.15297" lon="5.44397">
        <ele>859</ele>
        <time>2021-03-01T12:12:14Z</time>
      </trkpt>
      <trkpt lat="45.15293" lon="5.44423">
        <ele>858</ele>
        <time>2021-03-01T12:13:11Z</time>
      </trkpt>
      <trkpt lat="45.15284" lon="5.44446">
        <ele>860</ele>
        <time>2021-03-01T12:13:16Z</time>
      </trkpt>
      <trkpt lat="45.15269" lon="5.44468">
        <ele>864</ele>
        <time>2021-03-01T12:14:07Z</time>
      </trkpt>
      <trkpt lat="45.15264" lon="5.44493">
        <ele>862</ele>
        <time>2021-03-01T12:14:25Z</time>
      </trkpt>
      <trkpt lat="45.15285" lon="5.44493">
        <ele>852</ele>
        <time>2021-03-01T12:15:06Z</time>
      </trkpt>
      <trkpt lat="45.15302" lon="5.44479">
        <ele>848</ele>
        <time>2021-03-01T12:15:14Z</time>
      </trkpt>
      <trkpt lat="45.1532" lon="5.44478">
        <ele>841</ele>
        <time>2021-03-01T12:15:21Z</time>
      </trkpt>
      <trkpt lat="45.15339" lon="5.44481">
        <ele>836</ele>
        <time>2021-03-01T12:15:32Z</time>
      </trkpt>
      <trkpt lat="45.15358" lon="5.44481">
        <ele>833</ele>
        <time>2021-03-01T12:15:49Z</time>
      </trkpt>
      <trkpt lat="45.15383" lon="5.44485">
        <ele>829</ele>
        <time>2021-03-01T12:15:55Z</time>
      </trkpt>
      <trkpt lat="45.15402" lon="5.44484">
        <ele>825</ele>
        <time>2021-03-01T12:16:18Z</time>
      </trkpt>
      <trkpt lat="45.15421" lon="5.44478">
        <ele>818</ele>
        <time>2021-03-01T12:16:35Z</time>
      </trkpt>
      <trkpt lat="45.15458" lon="5.44553">
        <ele>805</ele>
        <time>2021-03-01T12:17:33Z</time>
      </trkpt>
      <trkpt lat="45.15444" lon="5.4457">
        <ele>817</ele>
        <time>2021-03-01T12:17:48Z</time>
      </trkpt>
      <trkpt lat="45.15447" lon="5.44595">
        <ele>818</ele>
        <time>2021-03-01T12:18:07Z</time>
      </trkpt>
      <trkpt lat="45.15459" lon="5.44616">
        <ele>811</ele>
        <time>2021-03-01T12:18:23Z</time>
      </trkpt>
      <trkpt lat="45.15471" lon="5.44637">
        <ele>807</ele>
        <time>2021-03-01T12:18:39Z</time>
      </trkpt>
      <trkpt lat="45.15471" lon="5.44663">
        <ele>809</ele>
        <time>2021-03-01T12:18:54Z</time>
      </trkpt>
      <trkpt lat="45.15468" lon="5.44688">
        <ele>814</ele>
        <time>2021-03-01T12:19:13Z</time>
      </trkpt>
      <trkpt lat="45.15476" lon="5.44714">
        <ele>814</ele>
        <time>2021-03-01T12:19:29Z</time>
      </trkpt>
      <trkpt lat="45.15487" lon="5.44734">
        <ele>816</ele>
        <time>2021-03-01T12:19:50Z</time>
      </trkpt>
      <trkpt lat="45.15505" lon="5.44725">
        <ele>806</ele>
        <time>2021-03-01T12:20:04Z</time>
      </trkpt>
      <trkpt lat="45.15503" lon="5.44699">
        <ele>797</ele>
        <time>2021-03-01T12:20:13Z</time>
      </trkpt>
      <trkpt lat="45.15522" lon="5.4469">
        <ele>792</ele>
        <time>2021-03-01T12:20:31Z</time>
      </trkpt>
      <trkpt lat="45.15537" lon="5.44711">
        <ele>796</ele>
        <time>2021-03-01T12:20:39Z</time>
      </trkpt>
      <trkpt lat="45.15555" lon="5.44714">
        <ele>792</ele>
        <time>2021-03-01T12:20:47Z</time>
      </trkpt>
      <trkpt lat="45.15574" lon="5.44714">
        <ele>781</ele>
        <time>2021-03-01T12:21:00Z</time>
      </trkpt>
      <trkpt lat="45.15586" lon="5.44735">
        <ele>779</ele>
        <time>2021-03-01T12:21:25Z</time>
      </trkpt>
      <trkpt lat="45.15596" lon="5.44758">
        <ele>781</ele>
        <time>2021-03-01T12:21:38Z</time>
      </trkpt>
      <trkpt lat="45.15579" lon="5.44784">
        <ele>792</ele>
        <time>2021-03-01T12:22:15Z</time>
      </trkpt>
      <trkpt lat="45.15592" lon="5.44802">
        <ele>789</ele>
        <time>2021-03-01T12:22:49Z</time>
      </trkpt>
      <trkpt lat="45.15591" lon="5.44829">
        <ele>793</ele>
        <time>2021-03-01T12:23:17Z</time>
      </trkpt>
      <trkpt lat="45.15572" lon="5.44834">
        <ele>802</ele>
        <time>2021-03-01T12:23:35Z</time>
      </trkpt>
      <trkpt lat="45.15589" lon="5.44855">
        <ele>797</ele>
        <time>2021-03-01T12:23:43Z</time>
      </trkpt>
      <trkpt lat="45.15573" lon="5.4487">
        <ele>806</ele>
        <time>2021-03-01T12:25:14Z</time>
      </trkpt>
      <trkpt lat="45.15572" lon="5.44897">
        <ele>810</ele>
        <time>2021-03-01T12:25:25Z</time>
      </trkpt>
      <trkpt lat="45.15585" lon="5.44914">
        <ele>806</ele>
        <time>2021-03-01T12:25:39Z</time>
      </trkpt>
      <trkpt lat="45.15581" lon="5.44939">
        <ele>810</ele>
        <time>2021-03-01T12:25:57Z</time>
      </trkpt>
      <trkpt lat="45.15594" lon="5.44959">
        <ele>815</ele>
        <time>2021-03-01T12:26:06Z</time>
      </trkpt>
      <trkpt lat="45.15592" lon="5.44985">
        <ele>817</ele>
        <time>2021-03-01T12:26:59Z</time>
      </trkpt>
      <trkpt lat="45.15586" lon="5.4501">
        <ele>818</ele>
        <time>2021-03-01T12:27:11Z</time>
      </trkpt>
      <trkpt lat="45.15595" lon="5.45036">
        <ele>824</ele>
        <time>2021-03-01T12:27:29Z</time>
      </trkpt>
      <trkpt lat="45.15577" lon="5.45041">
        <ele>826</ele>
        <time>2021-03-01T12:27:39Z</time>
      </trkpt>
      <trkpt lat="45.15591" lon="5.45057">
        <ele>827</ele>
        <time>2021-03-01T12:28:01Z</time>
      </trkpt>
      <trkpt lat="45.15576" lon="5.45073">
        <ele>832</ele>
        <time>2021-03-01T12:28:28Z</time>
      </trkpt>
      <trkpt lat="45.15581" lon="5.451">
        <ele>835</ele>
        <time>2021-03-01T12:28:46Z</time>
      </trkpt>
      <trkpt lat="45.1559" lon="5.45125">
        <ele>838</ele>
        <time>2021-03-01T12:29:57Z</time>
      </trkpt>
      <trkpt lat="45.15603" lon="5.45144">
        <ele>838</ele>
        <time>2021-03-01T12:30:06Z</time>
      </trkpt>
      <trkpt lat="45.15614" lon="5.45169">
        <ele>838</ele>
        <time>2021-03-01T12:30:17Z</time>
      </trkpt>
      <trkpt lat="45.15619" lon="5.45196">
        <ele>838</ele>
        <time>2021-03-01T12:30:29Z</time>
      </trkpt>
      <trkpt lat="45.15638" lon="5.45256">
        <ele>847</ele>
        <time>2021-03-01T12:31:14Z</time>
      </trkpt>
      <trkpt lat="45.15637" lon="5.45282">
        <ele>849</ele>
        <time>2021-03-01T12:31:34Z</time>
      </trkpt>
      <trkpt lat="45.15633" lon="5.45307">
        <ele>852</ele>
        <time>2021-03-01T12:31:56Z</time>
      </trkpt>
      <trkpt lat="45.15636" lon="5.45335">
        <ele>856</ele>
        <time>2021-03-01T12:32:17Z</time>
      </trkpt>
      <trkpt lat="45.15638" lon="5.45341">
        <ele>857</ele>
        <time>2021-03-01T12:33:09Z</time>
      </trkpt>
      <trkpt lat="45.15617" lon="5.45349">
        <ele>856</ele>
        <time>2021-03-01T12:38:12Z</time>
      </trkpt>
      <trkpt lat="45.15575" lon="5.4552">
        <ele>903</ele>
        <time>2021-03-01T12:38:51Z</time>
      </trkpt>
      <trkpt lat="45.15563" lon="5.45528">
        <ele>912</ele>
        <time>2021-03-01T12:39:28Z</time>
      </trkpt>
      <trkpt lat="45.15582" lon="5.45538">
        <ele>907</ele>
        <time>2021-03-01T12:39:35Z</time>
      </trkpt>
      <trkpt lat="45.1557" lon="5.45544">
        <ele>909</ele>
        <time>2021-03-01T12:40:39Z</time>
      </trkpt>
      <trkpt lat="45.15569" lon="5.45619">
        <ele>922</ele>
        <time>2021-03-01T12:43:46Z</time>
      </trkpt>
      <trkpt lat="45.15561" lon="5.45668">
        <ele>936</ele>
        <time>2021-03-01T12:47:11Z</time>
      </trkpt>
      <trkpt lat="45.15579" lon="5.45662">
        <ele>946</ele>
        <time>2021-03-01T12:47:41Z</time>
      </trkpt>
      <trkpt lat="45.15584" lon="5.45636">
        <ele>939</ele>
        <time>2021-03-01T12:52:15Z</time>
      </trkpt>
      <trkpt lat="45.15587" lon="5.45611">
        <ele>930</ele>
        <time>2021-03-01T12:54:38Z</time>
      </trkpt>
      <trkpt lat="45.15595" lon="5.45588">
        <ele>924</ele>
        <time>2021-03-01T12:54:59Z</time>
      </trkpt>
      <trkpt lat="45.15596" lon="5.45561">
        <ele>915</ele>
        <time>2021-03-01T12:56:11Z</time>
      </trkpt>
      <trkpt lat="45.15592" lon="5.45535">
        <ele>906</ele>
        <time>2021-03-01T12:56:21Z</time>
      </trkpt>
      <trkpt lat="45.15598" lon="5.45511">
        <ele>899</ele>
        <time>2021-03-01T12:57:26Z</time>
      </trkpt>
      <trkpt lat="45.15608" lon="5.45441">
        <ele>880</ele>
        <time>2021-03-01T12:59:33Z</time>
      </trkpt>
      <trkpt lat="45.15622" lon="5.45424">
        <ele>874</ele>
        <time>2021-03-01T13:00:16Z</time>
      </trkpt>
      <trkpt lat="45.15629" lon="5.45399">
        <ele>869</ele>
        <time>2021-03-01T13:00:31Z</time>
      </trkpt>
      <trkpt lat="45.15622" lon="5.45374">
        <ele>861</ele>
        <time>2021-03-01T13:00:51Z</time>
      </trkpt>
      <trkpt lat="45.15636" lon="5.45356">
        <ele>859</ele>
        <time>2021-03-01T13:01:25Z</time>
      </trkpt>
      <trkpt lat="45.15619" lon="5.45337">
        <ele>853</ele>
        <time>2021-03-01T13:03:34Z</time>
      </trkpt>
      <trkpt lat="45.15617" lon="5.4531">
        <ele>852</ele>
        <time>2021-03-01T13:04:02Z</time>
      </trkpt>
      <trkpt lat="45.15619" lon="5.45284">
        <ele>848</ele>
        <time>2021-03-01T13:04:15Z</time>
      </trkpt>
      <trkpt lat="45.15637" lon="5.45264">
        <ele>848</ele>
        <time>2021-03-01T13:04:18Z</time>
      </trkpt>
      <trkpt lat="45.1563" lon="5.4524">
        <ele>843</ele>
        <time>2021-03-01T13:04:31Z</time>
      </trkpt>
      <trkpt lat="45.15624" lon="5.45214">
        <ele>838</ele>
        <time>2021-03-01T13:04:44Z</time>
      </trkpt>
      <trkpt lat="45.15621" lon="5.45181">
        <ele>837</ele>
        <time>2021-03-01T13:05:40Z</time>
      </trkpt>
      <trkpt lat="45.15613" lon="5.45156">
        <ele>837</ele>
        <time>2021-03-01T13:05:46Z</time>
      </trkpt>
      <trkpt lat="45.15605" lon="5.45131">
        <ele>836</ele>
        <time>2021-03-01T13:05:54Z</time>
      </trkpt>
      <trkpt lat="45.15616" lon="5.45107">
        <ele>833</ele>
        <time>2021-03-01T13:06:02Z</time>
      </trkpt>
      <trkpt lat="45.1561" lon="5.45082">
        <ele>831</ele>
        <time>2021-03-01T13:06:14Z</time>
      </trkpt>
      <trkpt lat="45.15606" lon="5.45056">
        <ele>828</ele>
        <time>2021-03-01T13:06:26Z</time>
      </trkpt>
      <trkpt lat="45.15603" lon="5.45029">
        <ele>825</ele>
        <time>2021-03-01T13:06:43Z</time>
      </trkpt>
      <trkpt lat="45.15599" lon="5.45003">
        <ele>822</ele>
        <time>2021-03-01T13:06:58Z</time>
      </trkpt>
      <trkpt lat="45.156" lon="5.44976">
        <ele>820</ele>
        <time>2021-03-01T13:07:16Z</time>
      </trkpt>
      <trkpt lat="45.15601" lon="5.4495">
        <ele>818</ele>
        <time>2021-03-01T13:07:31Z</time>
      </trkpt>
      <trkpt lat="45.15615" lon="5.44933">
        <ele>824</ele>
        <time>2021-03-01T13:10:09Z</time>
      </trkpt>
      <trkpt lat="45.15597" lon="5.44804">
        <ele>791</ele>
        <time>2021-03-01T13:11:55Z</time>
      </trkpt>
      <trkpt lat="45.15608" lon="5.44784">
        <ele>792</ele>
        <time>2021-03-01T13:12:37Z</time>
      </trkpt>
      <trkpt lat="45.15611" lon="5.44758">
        <ele>786</ele>
        <time>2021-03-01T13:12:51Z</time>
      </trkpt>
      <trkpt lat="45.15627" lon="5.44741">
        <ele>787</ele>
        <time>2021-03-01T13:13:06Z</time>
      </trkpt>
      <trkpt lat="45.15638" lon="5.44721">
        <ele>785</ele>
        <time>2021-03-01T13:13:27Z</time>
      </trkpt>
      <trkpt lat="45.15649" lon="5.44699">
        <ele>784</ele>
        <time>2021-03-01T13:13:48Z</time>
      </trkpt>
      <trkpt lat="45.15666" lon="5.44691">
        <ele>789</ele>
        <time>2021-03-01T13:14:08Z</time>
      </trkpt>
      <trkpt lat="45.15687" lon="5.44687">
        <ele>795</ele>
        <time>2021-03-01T13:14:25Z</time>
      </trkpt>
      <trkpt lat="45.15705" lon="5.44682">
        <ele>801</ele>
        <time>2021-03-01T13:14:55Z</time>
      </trkpt>
      <trkpt lat="45.15722" lon="5.44669">
        <ele>805</ele>
        <time>2021-03-01T13:15:38Z</time>
      </trkpt>
      <trkpt lat="45.1572" lon="5.44644">
        <ele>803</ele>
        <time>2021-03-01T13:15:57Z</time>
      </trkpt>
      <trkpt lat="45.15739" lon="5.44642">
        <ele>810</ele>
        <time>2021-03-01T13:16:12Z</time>
      </trkpt>
      <trkpt lat="45.15737" lon="5.44611">
        <ele>814</ele>
        <time>2021-03-01T13:16:56Z</time>
      </trkpt>
      <trkpt lat="45.15719" lon="5.446">
        <ele>809</ele>
        <time>2021-03-01T13:17:02Z</time>
      </trkpt>
      <trkpt lat="45.15723" lon="5.44575">
        <ele>814</ele>
        <time>2021-03-01T13:17:37Z</time>
      </trkpt>
      <trkpt lat="45.15729" lon="5.4455">
        <ele>820</ele>
        <time>2021-03-01T13:18:02Z</time>
      </trkpt>
      <trkpt lat="45.15738" lon="5.44528">
        <ele>827</ele>
        <time>2021-03-01T13:18:50Z</time>
      </trkpt>
      <trkpt lat="45.15754" lon="5.4454">
        <ele>831</ele>
        <time>2021-03-01T13:19:27Z</time>
      </trkpt>
      <trkpt lat="45.15768" lon="5.44558">
        <ele>833</ele>
        <time>2021-03-01T13:20:06Z</time>
      </trkpt>
      <trkpt lat="45.15784" lon="5.4457">
        <ele>835</ele>
        <time>2021-03-01T13:20:35Z</time>
      </trkpt>
      <trkpt lat="45.15802" lon="5.44576">
        <ele>838</ele>
        <time>2021-03-01T13:20:52Z</time>
      </trkpt>
      <trkpt lat="45.15819" lon="5.44588">
        <ele>841</ele>
        <time>2021-03-01T13:21:34Z</time>
      </trkpt>
      <trkpt lat="45.15838" lon="5.4459">
        <ele>842</ele>
        <time>2021-03-01T13:21:47Z</time>
      </trkpt>
      <trkpt lat="45.15858" lon="5.44589">
        <ele>842</ele>
        <time>2021-03-01T13:22:10Z</time>
      </trkpt>
      <trkpt lat="45.15876" lon="5.44579">
        <ele>838</ele>
        <time>2021-03-01T13:23:49Z</time>
      </trkpt>
      <trkpt lat="45.15887" lon="5.446">
        <ele>841</ele>
        <time>2021-03-01T13:28:01Z</time>
      </trkpt>
      <trkpt lat="45.159" lon="5.44619">
        <ele>845</ele>
        <time>2021-03-01T13:28:15Z</time>
      </trkpt>
      <trkpt lat="45.15912" lon="5.44639">
        <ele>850</ele>
        <time>2021-03-01T13:28:31Z</time>
      </trkpt>
      <trkpt lat="45.15928" lon="5.44655">
        <ele>854</ele>
        <time>2021-03-01T13:28:59Z</time>
      </trkpt>
      <trkpt lat="45.15946" lon="5.44656">
        <ele>853</ele>
        <time>2021-03-01T13:29:12Z</time>
      </trkpt>
      <trkpt lat="45.15964" lon="5.44659">
        <ele>853</ele>
        <time>2021-03-01T13:29:28Z</time>
      </trkpt>
      <trkpt lat="45.15986" lon="5.44658">
        <ele>849</ele>
        <time>2021-03-01T13:29:41Z</time>
      </trkpt>
      <trkpt lat="45.16004" lon="5.44663">
        <ele>849</ele>
        <time>2021-03-01T13:29:57Z</time>
      </trkpt>
      <trkpt lat="45.1602" lon="5.44673">
        <ele>851</ele>
        <time>2021-03-01T13:30:14Z</time>
      </trkpt>
      <trkpt lat="45.1604" lon="5.44678">
        <ele>848</ele>
        <time>2021-03-01T13:30:29Z</time>
      </trkpt>
      <trkpt lat="45.16058" lon="5.4467">
        <ele>843</ele>
        <time>2021-03-01T13:30:46Z</time>
      </trkpt>
      <trkpt lat="45.16076" lon="5.44671">
        <ele>841</ele>
        <time>2021-03-01T13:31:03Z</time>
      </trkpt>
      <trkpt lat="45.16095" lon="5.44673">
        <ele>841</ele>
        <time>2021-03-01T13:31:21Z</time>
      </trkpt>
      <trkpt lat="45.16114" lon="5.44669">
        <ele>839</ele>
        <time>2021-03-01T13:31:33Z</time>
      </trkpt>
      <trkpt lat="45.16133" lon="5.44661">
        <ele>837</ele>
        <time>2021-03-01T13:31:48Z</time>
      </trkpt>
      <trkpt lat="45.16151" lon="5.44657">
        <ele>836</ele>
        <time>2021-03-01T13:32:06Z</time>
      </trkpt>
      <trkpt lat="45.1617" lon="5.44661">
        <ele>838</ele>
        <time>2021-03-01T13:32:19Z</time>
      </trkpt>
      <trkpt lat="45.16183" lon="5.44594">
        <ele>830</ele>
        <time>2021-03-01T13:32:53Z</time>
      </trkpt>
      <trkpt lat="45.16201" lon="5.44585">
        <ele>833</ele>
        <time>2021-03-01T13:33:12Z</time>
      </trkpt>
      <trkpt lat="45.16218" lon="5.44576">
        <ele>837</ele>
        <time>2021-03-01T13:33:24Z</time>
      </trkpt>
      <trkpt lat="45.16241" lon="5.44567">
        <ele>840</ele>
        <time>2021-03-01T13:33:41Z</time>
      </trkpt>
      <trkpt lat="45.1626" lon="5.44559">
        <ele>841</ele>
        <time>2021-03-01T13:34:03Z</time>
      </trkpt>
      <trkpt lat="45.16278" lon="5.44556">
        <ele>841</ele>
        <time>2021-03-01T13:34:19Z</time>
      </trkpt>
      <trkpt lat="45.16297" lon="5.44557">
        <ele>841</ele>
        <time>2021-03-01T13:34:40Z</time>
      </trkpt>
      <trkpt lat="45.16312" lon="5.44574">
        <ele>845</ele>
        <time>2021-03-01T13:34:59Z</time>
      </trkpt>
      <trkpt lat="45.16327" lon="5.4459">
        <ele>849</ele>
        <time>2021-03-01T13:35:17Z</time>
      </trkpt>
      <trkpt lat="45.16345" lon="5.44593">
        <ele>851</ele>
        <time>2021-03-01T13:35:35Z</time>
      </trkpt>
      <trkpt lat="45.16362" lon="5.44585">
        <ele>851</ele>
        <time>2021-03-01T13:35:57Z</time>
      </trkpt>
      <trkpt lat="45.16381" lon="5.44576">
        <ele>849</ele>
        <time>2021-03-01T13:36:10Z</time>
      </trkpt>
      <trkpt lat="45.16399" lon="5.44574">
        <ele>850</ele>
        <time>2021-03-01T13:36:25Z</time>
      </trkpt>
      <trkpt lat="45.16418" lon="5.44577">
        <ele>850</ele>
        <time>2021-03-01T13:36:39Z</time>
      </trkpt>
      <trkpt lat="45.16436" lon="5.44583">
        <ele>851</ele>
        <time>2021-03-01T13:36:55Z</time>
      </trkpt>
      <trkpt lat="45.16455" lon="5.44593">
        <ele>853</ele>
        <time>2021-03-01T13:37:11Z</time>
      </trkpt>
      <trkpt lat="45.16502" lon="5.44575">
        <ele>846</ele>
        <time>2021-03-01T13:37:53Z</time>
      </trkpt>
      <trkpt lat="45.1652" lon="5.44582">
        <ele>846</ele>
        <time>2021-03-01T13:38:37Z</time>
      </trkpt>
      <trkpt lat="45.16536" lon="5.44594">
        <ele>849</ele>
        <time>2021-03-01T13:38:53Z</time>
      </trkpt>
      <trkpt lat="45.16549" lon="5.44612">
        <ele>853</ele>
        <time>2021-03-01T13:41:36Z</time>
      </trkpt>
      <trkpt lat="45.16568" lon="5.44618">
        <ele>853</ele>
        <time>2021-03-01T13:41:48Z</time>
      </trkpt>
      <trkpt lat="45.16584" lon="5.44633">
        <ele>855</ele>
        <time>2021-03-01T13:42:02Z</time>
      </trkpt>
      <trkpt lat="45.16601" lon="5.44641">
        <ele>858</ele>
        <time>2021-03-01T13:42:20Z</time>
      </trkpt>
      <trkpt lat="45.16653" lon="5.44645">
        <ele>868</ele>
        <time>2021-03-01T13:42:54Z</time>
      </trkpt>
      <trkpt lat="45.16649" lon="5.4462">
        <ele>864</ele>
        <time>2021-03-01T13:43:16Z</time>
      </trkpt>
      <trkpt lat="45.16651" lon="5.44594">
        <ele>863</ele>
        <time>2021-03-01T13:43:28Z</time>
      </trkpt>
      <trkpt lat="45.16646" lon="5.44568">
        <ele>860</ele>
        <time>2021-03-01T13:43:42Z</time>
      </trkpt>
      <trkpt lat="45.16652" lon="5.44544">
        <ele>865</ele>
        <time>2021-03-01T13:44:28Z</time>
      </trkpt>
      <trkpt lat="45.16654" lon="5.44519">
        <ele>868</ele>
        <time>2021-03-01T13:44:45Z</time>
      </trkpt>
      <trkpt lat="45.16656" lon="5.44492">
        <ele>868</ele>
        <time>2021-03-01T13:45:01Z</time>
      </trkpt>
      <trkpt lat="45.16661" lon="5.44468">
        <ele>870</ele>
        <time>2021-03-01T13:45:18Z</time>
      </trkpt>
      <trkpt lat="45.16664" lon="5.44441">
        <ele>868</ele>
        <time>2021-03-01T13:45:35Z</time>
      </trkpt>
      <trkpt lat="45.1668" lon="5.44425">
        <ele>870</ele>
        <time>2021-03-01T13:45:57Z</time>
      </trkpt>
      <trkpt lat="45.16698" lon="5.44427">
        <ele>873</ele>
        <time>2021-03-01T13:46:11Z</time>
      </trkpt>
      <trkpt lat="45.16716" lon="5.44435">
        <ele>879</ele>
        <time>2021-03-01T13:46:31Z</time>
      </trkpt>
      <trkpt lat="45.16733" lon="5.44444">
        <ele>884</ele>
        <time>2021-03-01T13:46:49Z</time>
      </trkpt>
      <trkpt lat="45.16747" lon="5.44462">
        <ele>889</ele>
        <time>2021-03-01T13:47:06Z</time>
      </trkpt>
      <trkpt lat="45.16777" lon="5.44447">
        <ele>889</ele>
        <time>2021-03-01T13:47:55Z</time>
      </trkpt>
      <trkpt lat="45.1679" lon="5.44429">
        <ele>890</ele>
        <time>2021-03-01T13:48:11Z</time>
      </trkpt>
      <trkpt lat="45.16807" lon="5.44417">
        <ele>894</ele>
        <time>2021-03-01T13:48:21Z</time>
      </trkpt>
      <trkpt lat="45.16824" lon="5.44406">
        <ele>899</ele>
        <time>2021-03-01T13:48:39Z</time>
      </trkpt>
      <trkpt lat="45.16841" lon="5.44415">
        <ele>909</ele>
        <time>2021-03-01T13:48:53Z</time>
      </trkpt>
      <trkpt lat="45.16842" lon="5.44388">
        <ele>907</ele>
        <time>2021-03-01T13:49:20Z</time>
      </trkpt>
      <trkpt lat="45.16834" lon="5.44365">
        <ele>904</ele>
        <time>2021-03-01T13:49:39Z</time>
      </trkpt>
      <trkpt lat="45.16827" lon="5.4434">
        <ele>900</ele>
        <time>2021-03-01T13:49:58Z</time>
      </trkpt>
      <trkpt lat="45.16826" lon="5.44314">
        <ele>902</ele>
        <time>2021-03-01T13:50:17Z</time>
      </trkpt>
      <trkpt lat="45.16826" lon="5.44288">
        <ele>905</ele>
        <time>2021-03-01T13:50:36Z</time>
      </trkpt>
      <trkpt lat="45.16835" lon="5.44265">
        <ele>912</ele>
        <time>2021-03-01T13:50:55Z</time>
      </trkpt>
      <trkpt lat="45.16839" lon="5.44239">
        <ele>915</ele>
        <time>2021-03-01T13:51:13Z</time>
      </trkpt>
      <trkpt lat="45.16838" lon="5.44212">
        <ele>916</ele>
        <time>2021-03-01T13:51:34Z</time>
      </trkpt>
      <trkpt lat="45.16829" lon="5.44188">
        <ele>915</ele>
        <time>2021-03-01T13:51:52Z</time>
      </trkpt>
      <trkpt lat="45.16824" lon="5.44163">
        <ele>917</ele>
        <time>2021-03-01T13:52:10Z</time>
      </trkpt>
      <trkpt lat="45.16808" lon="5.44098">
        <ele>922</ele>
        <time>2021-03-01T13:52:55Z</time>
      </trkpt>
      <trkpt lat="45.16805" lon="5.44072">
        <ele>925</ele>
        <time>2021-03-01T13:53:24Z</time>
      </trkpt>
      <trkpt lat="45.16816" lon="5.44051">
        <ele>926</ele>
        <time>2021-03-01T13:53:42Z</time>
      </trkpt>
      <trkpt lat="45.16827" lon="5.44029">
        <ele>925</ele>
        <time>2021-03-01T13:54:00Z</time>
      </trkpt>
      <trkpt lat="45.16838" lon="5.44009">
        <ele>924</ele>
        <time>2021-03-01T13:54:15Z</time>
      </trkpt>
      <trkpt lat="45.16843" lon="5.43984">
        <ele>922</ele>
        <time>2021-03-01T13:54:28Z</time>
      </trkpt>
      <trkpt lat="45.16856" lon="5.43966">
        <ele>919</ele>
        <time>2021-03-01T13:54:45Z</time>
      </trkpt>
      <trkpt lat="45.16867" lon="5.43944">
        <ele>916</ele>
        <time>2021-03-01T13:55:00Z</time>
      </trkpt>
      <trkpt lat="45.16875" lon="5.43918">
        <ele>916</ele>
        <time>2021-03-01T13:55:15Z</time>
      </trkpt>
      <trkpt lat="45.1689" lon="5.439">
        <ele>913</ele>
        <time>2021-03-01T13:55:31Z</time>
      </trkpt>
      <trkpt lat="45.16902" lon="5.43921">
        <ele>911</ele>
        <time>2021-03-01T13:55:44Z</time>
      </trkpt>
      <trkpt lat="45.16905" lon="5.43948">
        <ele>911</ele>
        <time>2021-03-01T13:55:59Z</time>
      </trkpt>
      <trkpt lat="45.16922" lon="5.43956">
        <ele>910</ele>
        <time>2021-03-01T13:56:16Z</time>
      </trkpt>
      <trkpt lat="45.1694" lon="5.43949">
        <ele>907</ele>
        <time>2021-03-01T13:56:30Z</time>
      </trkpt>
      <trkpt lat="45.1696" lon="5.43948">
        <ele>905</ele>
        <time>2021-03-01T13:56:46Z</time>
      </trkpt>
      <trkpt lat="45.16978" lon="5.43943">
        <ele>902</ele>
        <time>2021-03-01T13:57:00Z</time>
      </trkpt>
      <trkpt lat="45.16996" lon="5.43938">
        <ele>899</ele>
        <time>2021-03-01T13:57:15Z</time>
      </trkpt>
      <trkpt lat="45.17046" lon="5.43939">
        <ele>899</ele>
        <time>2021-03-01T13:57:55Z</time>
      </trkpt>
      <trkpt lat="45.17064" lon="5.4393">
        <ele>896</ele>
        <time>2021-03-01T13:58:07Z</time>
      </trkpt>
      <trkpt lat="45.17082" lon="5.43926">
        <ele>895</ele>
        <time>2021-03-01T13:58:29Z</time>
      </trkpt>
      <trkpt lat="45.171" lon="5.43919">
        <ele>893</ele>
        <time>2021-03-01T13:58:42Z</time>
      </trkpt>
      <trkpt lat="45.17116" lon="5.43904">
        <ele>887</ele>
        <time>2021-03-01T13:59:02Z</time>
      </trkpt>
      <trkpt lat="45.17135" lon="5.43896">
        <ele>883</ele>
        <time>2021-03-01T13:59:15Z</time>
      </trkpt>
      <trkpt lat="45.17153" lon="5.43887">
        <ele>879</ele>
        <time>2021-03-01T13:59:32Z</time>
      </trkpt>
      <trkpt lat="45.1717" lon="5.43876">
        <ele>876</ele>
        <time>2021-03-01T13:59:45Z</time>
      </trkpt>
      <trkpt lat="45.17187" lon="5.43867">
        <ele>873</ele>
        <time>2021-03-01T14:00:01Z</time>
      </trkpt>
      <trkpt lat="45.17204" lon="5.43857">
        <ele>871</ele>
        <time>2021-03-01T14:00:16Z</time>
      </trkpt>
      <trkpt lat="45.17221" lon="5.43846">
        <ele>868</ele>
        <time>2021-03-01T14:00:31Z</time>
      </trkpt>
      <trkpt lat="45.17238" lon="5.43833">
        <ele>864</ele>
        <time>2021-03-01T14:00:47Z</time>
      </trkpt>
      <trkpt lat="45.17256" lon="5.43823">
        <ele>860</ele>
        <time>2021-03-01T14:01:03Z</time>
      </trkpt>
      <trkpt lat="45.17241" lon="5.43803">
        <ele>851</ele>
        <time>2021-03-01T14:01:40Z</time>
      </trkpt>
      <trkpt lat="45.17221" lon="5.43808">
        <ele>851</ele>
        <time>2021-03-01T14:01:55Z</time>
      </trkpt>
      <trkpt lat="45.17205" lon="5.43816">
        <ele>852</ele>
        <time>2021-03-01T14:02:08Z</time>
      </trkpt>
      <trkpt lat="45.17141" lon="5.43824">
        <ele>848</ele>
        <time>2021-03-01T14:03:04Z</time>
      </trkpt>
      <trkpt lat="45.17125" lon="5.43836">
        <ele>854</ele>
        <time>2021-03-01T14:03:14Z</time>
      </trkpt>
      <trkpt lat="45.17106" lon="5.43832">
        <ele>851</ele>
        <time>2021-03-01T14:03:29Z</time>
      </trkpt>
      <trkpt lat="45.17089" lon="5.43821">
        <ele>848</ele>
        <time>2021-03-01T14:03:47Z</time>
      </trkpt>
      <trkpt lat="45.17073" lon="5.4381">
        <ele>846</ele>
        <time>2021-03-01T14:04:01Z</time>
      </trkpt>
      <trkpt lat="45.17061" lon="5.4379">
        <ele>841</ele>
        <time>2021-03-01T14:04:11Z</time>
      </trkpt>
      <trkpt lat="45.17062" lon="5.43763">
        <ele>835</ele>
        <time>2021-03-01T14:04:29Z</time>
      </trkpt>
      <trkpt lat="45.17062" lon="5.43738">
        <ele>832</ele>
        <time>2021-03-01T14:04:49Z</time>
      </trkpt>
      <trkpt lat="45.17074" lon="5.43717">
        <ele>825</ele>
        <time>2021-03-01T14:05:03Z</time>
      </trkpt>
      <trkpt lat="45.17078" lon="5.4369">
        <ele>823</ele>
        <time>2021-03-01T14:05:15Z</time>
      </trkpt>
      <trkpt lat="45.17088" lon="5.43668">
        <ele>817</ele>
        <time>2021-03-01T14:05:31Z</time>
      </trkpt>
      <trkpt lat="45.17084" lon="5.4364">
        <ele>819</ele>
        <time>2021-03-01T14:05:45Z</time>
      </trkpt>
      <trkpt lat="45.17095" lon="5.43617">
        <ele>812</ele>
        <time>2021-03-01T14:06:05Z</time>
      </trkpt>
      <trkpt lat="45.171" lon="5.43593">
        <ele>809</ele>
        <time>2021-03-01T14:06:19Z</time>
      </trkpt>
      <trkpt lat="45.17101" lon="5.43564">
        <ele>809</ele>
        <time>2021-03-01T14:06:35Z</time>
      </trkpt>
      <trkpt lat="45.17104" lon="5.43538">
        <ele>807</ele>
        <time>2021-03-01T14:06:50Z</time>
      </trkpt>
      <trkpt lat="45.17115" lon="5.43518">
        <ele>800</ele>
        <time>2021-03-01T14:07:04Z</time>
      </trkpt>
      <trkpt lat="45.17116" lon="5.43547">
        <ele>800</ele>
        <time>2021-03-01T14:07:57Z</time>
      </trkpt>
      <trkpt lat="45.17129" lon="5.43572">
        <ele>794</ele>
        <time>2021-03-01T14:08:17Z</time>
      </trkpt>
      <trkpt lat="45.17135" lon="5.43597">
        <ele>792</ele>
        <time>2021-03-01T14:08:34Z</time>
      </trkpt>
      <trkpt lat="45.1714" lon="5.43621">
        <ele>791</ele>
        <time>2021-03-01T14:08:48Z</time>
      </trkpt>
      <trkpt lat="45.17153" lon="5.43642">
        <ele>788</ele>
        <time>2021-03-01T14:09:03Z</time>
      </trkpt>
      <trkpt lat="45.17161" lon="5.43666">
        <ele>793</ele>
        <time>2021-03-01T14:09:21Z</time>
      </trkpt>
      <trkpt lat="45.17176" lon="5.43648">
        <ele>789</ele>
        <time>2021-03-01T14:09:55Z</time>
      </trkpt>
      <trkpt lat="45.17186" lon="5.43627">
        <ele>784</ele>
        <time>2021-03-01T14:10:13Z</time>
      </trkpt>
      <trkpt lat="45.17188" lon="5.436">
        <ele>777</ele>
        <time>2021-03-01T14:10:44Z</time>
      </trkpt>
      <trkpt lat="45.17195" lon="5.43575">
        <ele>771</ele>
        <time>2021-03-01T14:11:06Z</time>
      </trkpt>
      <trkpt lat="45.17207" lon="5.43555">
        <ele>766</ele>
        <time>2021-03-01T14:11:28Z</time>
      </trkpt>
      <trkpt lat="45.1722" lon="5.43537">
        <ele>763</ele>
        <time>2021-03-01T14:11:47Z</time>
      </trkpt>
      <trkpt lat="45.17227" lon="5.43512">
        <ele>759</ele>
        <time>2021-03-01T14:12:03Z</time>
      </trkpt>
      <trkpt lat="45.17262" lon="5.43421">
        <ele>738</ele>
        <time>2021-03-01T14:13:39Z</time>
      </trkpt>
      <trkpt lat="45.17248" lon="5.43403">
        <ele>735</ele>
        <time>2021-03-01T14:14:12Z</time>
      </trkpt>
      <trkpt lat="45.17244" lon="5.43377">
        <ele>734</ele>
        <time>2021-03-01T14:14:30Z</time>
      </trkpt>
      <trkpt lat="45.17246" lon="5.43352">
        <ele>730</ele>
        <time>2021-03-01T14:14:48Z</time>
      </trkpt>
      <trkpt lat="45.17253" lon="5.43328">
        <ele>722</ele>
        <time>2021-03-01T14:15:38Z</time>
      </trkpt>
      <trkpt lat="45.1726" lon="5.43303">
        <ele>710</ele>
        <time>2021-03-01T14:16:03Z</time>
      </trkpt>
      <trkpt lat="45.17255" lon="5.43277">
        <ele>704</ele>
        <time>2021-03-01T14:16:28Z</time>
      </trkpt>
      <trkpt lat="45.17254" lon="5.43252">
        <ele>692</ele>
        <time>2021-03-01T14:16:57Z</time>
      </trkpt>
      <trkpt lat="45.17248" lon="5.43227">
        <ele>684</ele>
        <time>2021-03-01T14:17:26Z</time>
      </trkpt>
      <trkpt lat="45.17239" lon="5.4319">
        <ele>672</ele>
        <time>2021-03-01T14:17:59Z</time>
      </trkpt>
      <trkpt lat="45.17227" lon="5.4317">
        <ele>668</ele>
        <time>2021-03-01T14:18:40Z</time>
      </trkpt>
      <trkpt lat="45.17222" lon="5.43143">
        <ele>656</ele>
        <time>2021-03-01T14:19:03Z</time>
      </trkpt>
      <trkpt lat="45.17208" lon="5.43126">
        <ele>655</ele>
        <time>2021-03-01T14:19:25Z</time>
      </trkpt>
      <trkpt lat="45.17194" lon="5.43105">
        <ele>651</ele>
        <time>2021-03-01T14:20:31Z</time>
      </trkpt>
      <trkpt lat="45.17186" lon="5.43081">
        <ele>642</ele>
        <time>2021-03-01T14:21:03Z</time>
      </trkpt>
      <trkpt lat="45.17176" lon="5.43059">
        <ele>638</ele>
        <time>2021-03-01T14:21:21Z</time>
      </trkpt>
      <trkpt lat="45.17165" lon="5.43039">
        <ele>637</ele>
        <time>2021-03-01T14:21:44Z</time>
      </trkpt>
      <trkpt lat="45.17165" lon="5.43012">
        <ele>626</ele>
        <time>2021-03-01T14:22:05Z</time>
      </trkpt>
      <trkpt lat="45.17154" lon="5.4299">
        <ele>626</ele>
        <time>2021-03-01T14:22:22Z</time>
      </trkpt>
      <trkpt lat="45.17125" lon="5.42909">
        <ele>619</ele>
        <time>2021-03-01T14:23:10Z</time>
      </trkpt>
      <trkpt lat="45.17111" lon="5.42892">
        <ele>622</ele>
        <time>2021-03-01T14:23:30Z</time>
      </trkpt>
      <trkpt lat="45.17105" lon="5.42866">
        <ele>619</ele>
        <time>2021-03-01T14:23:47Z</time>
      </trkpt>
      <trkpt lat="45.17098" lon="5.42842">
        <ele>617</ele>
        <time>2021-03-01T14:24:06Z</time>
      </trkpt>
      <trkpt lat="45.17094" lon="5.42817">
        <ele>613</ele>
        <time>2021-03-01T14:24:32Z</time>
      </trkpt>
      <trkpt lat="45.1709" lon="5.42791">
        <ele>610</ele>
        <time>2021-03-01T14:24:53Z</time>
      </trkpt>
      <trkpt lat="45.17082" lon="5.42766">
        <ele>611</ele>
        <time>2021-03-01T14:30:03Z</time>
      </trkpt>
      <trkpt lat="45.17078" lon="5.42741">
        <ele>608</ele>
        <time>2021-03-01T14:30:20Z</time>
      </trkpt>
      <trkpt lat="45.17078" lon="5.42715">
        <ele>602</ele>
        <time>2021-03-01T14:30:36Z</time>
      </trkpt>
      <trkpt lat="45.17076" lon="5.42689">
        <ele>597</ele>
        <time>2021-03-01T14:30:52Z</time>
      </trkpt>
      <trkpt lat="45.17071" lon="5.42664">
        <ele>595</ele>
        <time>2021-03-01T14:31:09Z</time>
      </trkpt>
      <trkpt lat="45.17068" lon="5.42638">
        <ele>591</ele>
        <time>2021-03-01T14:31:27Z</time>
      </trkpt>
      <trkpt lat="45.17066" lon="5.42612">
        <ele>584</ele>
        <time>2021-03-01T14:31:43Z</time>
      </trkpt>
      <trkpt lat="45.17057" lon="5.42589">
        <ele>584</ele>
        <time>2021-03-01T14:31:57Z</time>
      </trkpt>
      <trkpt lat="45.17044" lon="5.42569">
        <ele>587</ele>
        <time>2021-03-01T14:32:12Z</time>
      </trkpt>
      <trkpt lat="45.17034" lon="5.42547">
        <ele>584</ele>
        <time>2021-03-01T14:32:28Z</time>
      </trkpt>
      <trkpt lat="45.17023" lon="5.42492">
        <ele>572</ele>
        <time>2021-03-01T14:33:02Z</time>
      </trkpt>
      <trkpt lat="45.17005" lon="5.42482">
        <ele>579</ele>
        <time>2021-03-01T14:33:14Z</time>
      </trkpt>
      <trkpt lat="45.16993" lon="5.42463">
        <ele>579</ele>
        <time>2021-03-01T14:33:28Z</time>
      </trkpt>
      <trkpt lat="45.16983" lon="5.42442">
        <ele>576</ele>
        <time>2021-03-01T14:33:42Z</time>
      </trkpt>
      <trkpt lat="45.16972" lon="5.4242">
        <ele>574</ele>
        <time>2021-03-01T14:33:57Z</time>
      </trkpt>
      <trkpt lat="45.16962" lon="5.42397">
        <ele>574</ele>
        <time>2021-03-01T14:34:12Z</time>
      </trkpt>
      <trkpt lat="45.16949" lon="5.42378">
        <ele>574</ele>
        <time>2021-03-01T14:34:26Z</time>
      </trkpt>
      <trkpt lat="45.16935" lon="5.42361">
        <ele>577</ele>
        <time>2021-03-01T14:34:41Z</time>
      </trkpt>
      <trkpt lat="45.16928" lon="5.42336">
        <ele>575</ele>
        <time>2021-03-01T14:34:55Z</time>
      </trkpt>
      <trkpt lat="45.16922" lon="5.42311">
        <ele>573</ele>
        <time>2021-03-01T14:35:08Z</time>
      </trkpt>
      <trkpt lat="45.1692" lon="5.42284">
        <ele>569</ele>
        <time>2021-03-01T14:35:26Z</time>
      </trkpt>
      <trkpt lat="45.16917" lon="5.42258">
        <ele>564</ele>
        <time>2021-03-01T14:35:41Z</time>
      </trkpt>
      <trkpt lat="45.16933" lon="5.42272">
        <ele>559</ele>
        <time>2021-03-01T14:36:17Z</time>
      </trkpt>
      <trkpt lat="45.1694" lon="5.42297">
        <ele>561</ele>
        <time>2021-03-01T14:36:34Z</time>
      </trkpt>
      <trkpt lat="45.16949" lon="5.4232">
        <ele>561</ele>
        <time>2021-03-01T14:36:49Z</time>
      </trkpt>
      <trkpt lat="45.16965" lon="5.42337">
        <ele>557</ele>
        <time>2021-03-01T14:37:04Z</time>
      </trkpt>
      <trkpt lat="45.16969" lon="5.42312">
        <ele>548</ele>
        <time>2021-03-01T14:38:50Z</time>
      </trkpt>
      <trkpt lat="45.16978" lon="5.4229">
        <ele>539</ele>
        <time>2021-03-01T14:39:07Z</time>
      </trkpt>
      <trkpt lat="45.16979" lon="5.42264">
        <ele>533</ele>
        <time>2021-03-01T14:39:26Z</time>
      </trkpt>
      <trkpt lat="45.16982" lon="5.42238">
        <ele>526</ele>
        <time>2021-03-01T14:39:41Z</time>
      </trkpt>
      <trkpt lat="45.16983" lon="5.42211">
        <ele>520</ele>
        <time>2021-03-01T14:40:03Z</time>
      </trkpt>
      <trkpt lat="45.16977" lon="5.42187">
        <ele>519</ele>
        <time>2021-03-01T14:40:18Z</time>
      </trkpt>
      <trkpt lat="45.16972" lon="5.42162">
        <ele>517</ele>
        <time>2021-03-01T14:40:34Z</time>
      </trkpt>
      <trkpt lat="45.16962" lon="5.4214">
        <ele>517</ele>
        <time>2021-03-01T14:40:55Z</time>
      </trkpt>
      <trkpt lat="45.16957" lon="5.42112">
        <ele>514</ele>
        <time>2021-03-01T14:41:13Z</time>
      </trkpt>
      <trkpt lat="45.16951" lon="5.42087">
        <ele>509</ele>
        <time>2021-03-01T14:41:31Z</time>
      </trkpt>
      <trkpt lat="45.16948" lon="5.42061">
        <ele>504</ele>
        <time>2021-03-01T14:41:50Z</time>
      </trkpt>
      <trkpt lat="45.16936" lon="5.42041">
        <ele>501</ele>
        <time>2021-03-01T14:42:10Z</time>
      </trkpt>
      <trkpt lat="45.16947" lon="5.42018">
        <ele>490</ele>
        <time>2021-03-01T14:43:17Z</time>
      </trkpt>
      <trkpt lat="45.1694" lon="5.41993">
        <ele>484</ele>
        <time>2021-03-01T14:43:44Z</time>
      </trkpt>
      <trkpt lat="45.16938" lon="5.41966">
        <ele>474</ele>
        <time>2021-03-01T14:44:07Z</time>
      </trkpt>
      <trkpt lat="45.16933" lon="5.41941">
        <ele>465</ele>
        <time>2021-03-01T14:44:44Z</time>
      </trkpt>
      <trkpt lat="45.16941" lon="5.41917">
        <ele>454</ele>
        <time>2021-03-01T14:45:42Z</time>
      </trkpt>
      <trkpt lat="45.16941" lon="5.4189">
        <ele>447</ele>
        <time>2021-03-01T14:46:41Z</time>
      </trkpt>
      <trkpt lat="45.16956" lon="5.41875">
        <ele>437</ele>
        <time>2021-03-01T14:47:05Z</time>
      </trkpt>
      <trkpt lat="45.16973" lon="5.41886">
        <ele>433</ele>
        <time>2021-03-01T14:47:19Z</time>
      </trkpt>
      <trkpt lat="45.16986" lon="5.41905">
        <ele>433</ele>
        <time>2021-03-01T14:47:37Z</time>
      </trkpt>
      <trkpt lat="45.16994" lon="5.41886">
        <ele>423</ele>
        <time>2021-03-01T14:48:40Z</time>
      </trkpt>
      <trkpt lat="45.16997" lon="5.41859">
        <ele>412</ele>
        <time>2021-03-01T14:49:23Z</time>
      </trkpt>
      <trkpt lat="45.16991" lon="5.41834">
        <ele>406</ele>
        <time>2021-03-01T14:49:48Z</time>
      </trkpt>
      <trkpt lat="45.1699" lon="5.41808">
        <ele>397</ele>
        <time>2021-03-01T14:50:27Z</time>
      </trkpt>
      <trkpt lat="45.16984" lon="5.41784">
        <ele>390</ele>
        <time>2021-03-01T14:50:57Z</time>
      </trkpt>
      <trkpt lat="45.16979" lon="5.41758">
        <ele>379</ele>
        <time>2021-03-01T14:52:02Z</time>
      </trkpt>
      <trkpt lat="45.16964" lon="5.41742">
        <ele>379</ele>
        <time>2021-03-01T14:52:31Z</time>
      </trkpt>
      <trkpt lat="45.16953" lon="5.4172">
        <ele>374</ele>
        <time>2021-03-01T14:53:51Z</time>
      </trkpt>
      <trkpt lat="45.16941" lon="5.417">
        <ele>371</ele>
        <time>2021-03-01T14:54:01Z</time>
      </trkpt>
      <trkpt lat="45.16925" lon="5.41683">
        <ele>367</ele>
        <time>2021-03-01T14:54:18Z</time>
      </trkpt>
      <trkpt lat="45.16917" lon="5.41659">
        <ele>356</ele>
        <time>2021-03-01T14:55:20Z</time>
      </trkpt>
      <trkpt lat="45.16913" lon="5.41634">
        <ele>345</ele>
        <time>2021-03-01T14:55:48Z</time>
      </trkpt>
      <trkpt lat="45.16894" lon="5.41633">
        <ele>352</ele>
        <time>2021-03-01T14:56:07Z</time>
      </trkpt>
      <trkpt lat="45.16881" lon="5.41615">
        <ele>342</ele>
        <time>2021-03-01T14:56:25Z</time>
      </trkpt>
      <trkpt lat="45.16889" lon="5.41559">
        <ele>322</ele>
        <time>2021-03-01T14:59:13Z</time>
      </trkpt>
      <trkpt lat="45.16887" lon="5.41534">
        <ele>314</ele>
        <time>2021-03-01T14:59:53Z</time>
      </trkpt>
      <trkpt lat="45.16905" lon="5.41545">
        <ele>313</ele>
        <time>2021-03-01T15:00:40Z</time>
      </trkpt>
      <trkpt lat="45.16923" lon="5.41549">
        <ele>307</ele>
        <time>2021-03-01T15:01:22Z</time>
      </trkpt>
      <trkpt lat="45.16904" lon="5.41483">
        <ele>300</ele>
        <time>2021-03-01T15:04:05Z</time>
      </trkpt>
      <trkpt lat="45.16915" lon="5.41461">
        <ele>295</ele>
        <time>2021-03-01T15:04:14Z</time>
      </trkpt>
      <trkpt lat="45.16922" lon="5.41436">
        <ele>291</ele>
        <time>2021-03-01T15:04:43Z</time>
      </trkpt>
      <trkpt lat="45.16925" lon="5.41408">
        <ele>288</ele>
        <time>2021-03-01T15:05:09Z</time>
      </trkpt>
      <trkpt lat="45.16925" lon="5.41379">
        <ele>286</ele>
        <time>2021-03-01T15:05:20Z</time>
      </trkpt>
      <trkpt lat="45.16929" lon="5.41354">
        <ele>284</ele>
        <time>2021-03-01T15:05:44Z</time>
      </trkpt>
      <trkpt lat="45.1695" lon="5.41351">
        <ele>285</ele>
        <time>2021-03-01T15:06:10Z</time>
      </trkpt>
      <trkpt lat="45.17051" lon="5.4124">
        <ele>276</ele>
        <time>2021-03-01T15:09:06Z</time>
      </trkpt>
      <trkpt lat="45.17045" lon="5.41218">
        <ele>275</ele>
        <time>2021-03-01T15:09:28Z</time>
      </trkpt>
      <trkpt lat="45.17048" lon="5.41194">
        <ele>274</ele>
        <time>2021-03-01T15:10:07Z</time>
      </trkpt>
    </trkseg>
  </trk>
</gpx>